Home Latest Filings Latest Buys Latest Sells Institutions Derivatives Hot Buys Data Screener Email Alerts Insider Charts
NOC - As of  10/17/18, 04:09:07 AM:   734 Insider Transactions.

Sector: Industrial Goods    Industry: Aerospace/Defense - Major Diversified
Prev Close:$221.96  Avg Vol(3m): 891,559  P/E: 20.10  EPS: 11.01

Email this page to a friend.    Institutional Transactions for NOC

                Buy: Blue    Sell: Red
Non-meaningful transactions (gifts, grants, etc.) are automatically filtered out for quicker actions.
Buy(P) /
Sell(S)
P/S date Filed Date Company Symbol Insider Relationship Share Amt. Unit Price Total Proceeds Shares Owned Return(1m) Details
S 2018-10-03 2018-10-05 17:13:11.0 NORTHROP GRUMMAN CORP /DE/ NOC CHESTON SHEILA C. officer (Corp. VP & General Counsel) 10,440 $320.00 $3,340,800.00 43,696 view
S 2018-09-17 2018-09-19 16:34:49.0 NORTHROP GRUMMAN CORP /DE/ NOC Antkowiak Patrick M. officer (Corp VP & CTO) 5,137 $310.00 $1,592,470.00 5,371 view
S 2018-08-30 2018-09-04 18:07:01.0 NORTHROP GRUMMAN CORP /DE/ NOC Caylor Mark A officer (Corp VP & Pres, Mission System) 1,843 $297.63 $548,532.00 21,349 view
S 2018-08-30 2018-09-04 18:07:01.0 NORTHROP GRUMMAN CORP /DE/ NOC Caylor Mark A officer (Corp VP & Pres, Mission System) 1,400 $296.41 $414,974.00 23,192 view
S 2018-08-30 2018-09-04 18:07:01.0 NORTHROP GRUMMAN CORP /DE/ NOC Caylor Mark A officer (Corp VP & Pres, Mission System) 1,300 $298.32 $387,816.00 24,592 view
S 2018-08-27 2018-08-29 17:17:39.0 NORTHROP GRUMMAN CORP /DE/ NOC Kalan Lesley A officer (Corp VP, Government Relations) 1,065 $300.02 $319,521.00 13,656 view
S 2018-08-02 2018-08-06 16:23:42.0 NORTHROP GRUMMAN CORP /DE/ NOC BUSH WESLEY G director officer (Chairman and CEO) 11,300 $297.55 $3,362,320.00 1 view
S 2018-08-02 2018-08-06 16:23:42.0 NORTHROP GRUMMAN CORP /DE/ NOC BUSH WESLEY G director officer (Chairman and CEO) 5,400 $298.48 $1,611,790.00 11,301 view
S 2018-08-02 2018-08-06 16:23:42.0 NORTHROP GRUMMAN CORP /DE/ NOC BUSH WESLEY G director officer (Chairman and CEO) 2,000 $299.07 $598,140.00 16,701 view
S 2018-08-02 2018-08-06 16:23:42.0 NORTHROP GRUMMAN CORP /DE/ NOC BUSH WESLEY G director officer (Chairman and CEO) 1,300 $296.94 $386,022.00 18,701 view
S 2018-08-01 2018-08-03 16:27:54.0 NORTHROP GRUMMAN CORP /DE/ NOC Bedingfield Kenneth L officer (Corp VP, CFO) 1,442 $300.00 $432,600.00 32,898 view
S 2018-07-30 2018-08-01 16:35:39.0 NORTHROP GRUMMAN CORP /DE/ NOC Perry David T officer (CVP Chief Global Bus Dev Off) 4,325 $300.25 $1,298,580.00 23,787 view
S 2018-07-30 2018-08-01 16:35:39.0 NORTHROP GRUMMAN CORP /DE/ NOC Perry David T officer (CVP Chief Global Bus Dev Off) 100 $301.00 $30,100.00 28,112 view
S 2018-04-04 2018-04-05 16:59:38.0 NORTHROP GRUMMAN CORP /DE/ NOC Pamiljans Janis G officer (Corp VP & President AS Systems) 955 $338.85 $323,602.00 7,632 view
S 2018-02-28 2018-03-02 14:22:41.0 NORTHROP GRUMMAN CORP /DE/ NOC Pamiljans Janis G officer (Corp VP & President AS Systems) 1,568 $354.30 $555,542.00 6,677 view
S 2018-02-26 2018-02-27 16:34:03.0 NORTHROP GRUMMAN CORP /DE/ NOC Hardesty Michael A officer (Corp VP, Controller & CAO) 1,296 $353.20 $457,747.00 6,677 view
S 2018-02-26 2018-02-27 16:34:03.0 NORTHROP GRUMMAN CORP /DE/ NOC Pamiljans Janis G officer (Corp VP & President AS Systems) 849 $353.20 $299,867.00 8,245 view
S 2018-02-26 2018-02-27 16:34:03.0 NORTHROP GRUMMAN CORP /DE/ NOC Peppard Denise M. officer (Corp VP & Chf HR Ofcr) 3,721 $353.20 $1,314,260.00 21,692 view
S 2018-02-20 2018-02-22 17:34:50.0 NORTHROP GRUMMAN CORP /DE/ NOC Peppard Denise M. officer (Corp VP & Chf HR Ofcr) 6,444 $353.26 $2,276,410.00 25,392 view
S 2018-02-20 2018-02-22 17:34:50.0 NORTHROP GRUMMAN CORP /DE/ NOC Peppard Denise M. officer (Corp VP & Chf HR Ofcr) 1,600 $354.29 $566,864.00 31,836 view
S 2018-02-20 2018-02-22 17:34:13.0 NORTHROP GRUMMAN CORP /DE/ NOC Pamiljans Janis G officer (Corp VP & President AS Systems) 3,226 $351.06 $1,132,520.00 9,134 view
S 2018-02-20 2018-02-22 17:34:02.0 NORTHROP GRUMMAN CORP /DE/ NOC Hardesty Michael A officer (Corp VP, Controller & CAO) 2,941 $351.06 $1,032,470.00 9,202 view
S 2018-02-13 2018-02-15 17:40:41.0 NORTHROP GRUMMAN CORP /DE/ NOC Pamiljans Janis G officer (Corp VP & President AS Systems) 2,557 $335.12 $856,902.00 13,522 view
S 2018-02-13 2018-02-15 17:39:39.0 NORTHROP GRUMMAN CORP /DE/ NOC Peppard Denise M. officer (Corp VP & Chf HR Ofcr) 2,539 $335.12 $850,870.00 36,074 view
P 2017-11-29 2017-12-13 17:06:43.0 NORTHROP GRUMMAN CORP /DE/ NOC FUDGE ANN M director 16 $306.92 $4,910.64 1,874 view
S 2017-11-13 2017-11-15 12:22:16.0 NORTHROP GRUMMAN CORP /DE/ NOC FLACH GLORIA A officer (CVP & Chief Operating Officer) 3,141 $297.10 $933,191.00 71,259 view
S 2017-11-13 2017-11-15 12:22:16.0 NORTHROP GRUMMAN CORP /DE/ NOC FLACH GLORIA A officer (CVP & Chief Operating Officer) 2,800 $296.54 $830,312.00 74,400 view
S 2017-11-13 2017-11-15 12:22:16.0 NORTHROP GRUMMAN CORP /DE/ NOC FLACH GLORIA A officer (CVP & Chief Operating Officer) 1,800 $295.16 $531,288.00 77,200 view
S 2017-11-06 2017-11-07 17:27:24.0 NORTHROP GRUMMAN CORP /DE/ NOC Peppard Denise M. officer (Corp VP & Chf HR Ofcr) 2,328 $300.86 $700,402.00 28,553 view
S 2017-11-01 2017-11-03 19:40:51.0 NORTHROP GRUMMAN CORP /DE/ NOC Jones Christopher T officer (Corp VP & Pres Tech Svcs) 1,250 $295.67 $369,588.00 58,186 view
S 2017-11-01 2017-11-03 19:40:46.0 NORTHROP GRUMMAN CORP /DE/ NOC Peppard Denise M. officer (Corp VP & Chf HR Ofcr) 5,037 $295.67 $1,489,290.00 30,881 view
S 2017-10-27 2017-10-31 15:29:42.0 NORTHROP GRUMMAN CORP /DE/ NOC ASHWORTH SID officer (Corp VP, Government Relations) 6,311 $298.00 $1,880,680.00 63,147 view
S 2017-08-01 2017-08-02 16:49:03.0 NORTHROP GRUMMAN CORP /DE/ NOC DAVIS LISA R officer (Corp VP, Communications) 367 $263.25 $96,612.80 961 view
S 2017-08-01 2017-08-02 16:49:03.0 NORTHROP GRUMMAN CORP /DE/ NOC Jones Christopher T officer (Corp VP & Pres Tech Svcs) 1,250 $263.25 $329,062.00 60,436 view
S 2017-08-01 2017-08-02 16:49:03.0 NORTHROP GRUMMAN CORP /DE/ NOC Warden Kathy J officer (Corp VP & Pres Mission Syst) 9,292 $263.41 $2,447,610.00 74,337 view
S 2017-06-14 2017-06-16 15:54:49.0 NORTHROP GRUMMAN CORP /DE/ NOC ASHWORTH SID officer (Corp VP, Government Relations) 3,847 $260.00 $1,000,220.00 69,458 view
S 2017-05-10 2017-05-12 15:24:19.0 NORTHROP GRUMMAN CORP /DE/ NOC DAVIS LISA R officer (Corp VP, Communications) 591 $250.00 $147,750.00 592 N/A view
S 2017-05-10 2017-05-12 15:23:08.0 NORTHROP GRUMMAN CORP /DE/ NOC VICE THOMAS E officer (Corp VP) 29,740 $250.00 $7,435,000.00 72,453 N/A view
S 2017-05-03 2017-05-04 16:56:50.0 NORTHROP GRUMMAN CORP /DE/ NOC BUSH WESLEY G director officer (Chairman, CEO and President) 33,976 $244.74 $8,315,290.00 1 N/A view
S 2017-04-26 2017-04-28 16:26:56.0 NORTHROP GRUMMAN CORP /DE/ NOC VICE THOMAS E officer (Corp VP) 91 $250.00 $22,750.00 102,193 N/A view
S 2017-04-03 2017-04-04 16:48:54.0 NORTHROP GRUMMAN CORP /DE/ NOC Jones Christopher T officer (Corp VP & Pres Tech Svcs) 240 $237.58 $57,019.20 61,686 N/A view
S 2017-03-01 2017-03-03 16:05:35.0 NORTHROP GRUMMAN CORP /DE/ NOC Jones Christopher T officer (Corp VP & Pres Tech Svcs) 240 $248.70 $59,688.00 61,926 N/A view
S 2017-02-28 2017-03-02 16:24:00.0 NORTHROP GRUMMAN CORP /DE/ NOC Caylor Mark A officer (Corp VP & Pres ES & CSO) 3,815 $247.50 $944,212.00 24,885 N/A view
S 2017-02-27 2017-03-01 16:07:05.0 NORTHROP GRUMMAN CORP /DE/ NOC BUSH WESLEY G director officer (Chairman, CEO and President) 33,063 $247.69 $8,189,370.00 61,095 N/A view
S 2017-02-27 2017-03-01 16:06:06.0 NORTHROP GRUMMAN CORP /DE/ NOC Antkowiak Patrick M. officer (Corp VP & CTO) 58 $248.17 $14,394.00 6,180 N/A view
S 2017-02-23 2017-02-24 16:12:39.0 NORTHROP GRUMMAN CORP /DE/ NOC CHESTON SHEILA C. officer (Corp. VP & General Counsel) 6,772 $242.11 $1,639,570.00 44,062 N/A view
S 2017-02-23 2017-02-24 16:11:45.0 NORTHROP GRUMMAN CORP /DE/ NOC Caylor Mark A officer (Corp VP & Pres ES & CSO) 989 $242.11 $239,447.00 28,700 N/A view
S 2017-02-23 2017-02-24 16:11:26.0 NORTHROP GRUMMAN CORP /DE/ NOC Hardesty Michael A officer (Corp VP, Controller & CAO) 329 $242.11 $79,654.20 9,550 N/A view
S 2017-02-23 2017-02-24 16:10:29.0 NORTHROP GRUMMAN CORP /DE/ NOC Perry David T officer (CVP Chief Global Bus Dev Off) 10,490 $242.11 $2,539,730.00 20,567 N/A view
S 2017-02-23 2017-02-24 16:10:29.0 NORTHROP GRUMMAN CORP /DE/ NOC Peppard Denise M. officer (Corp VP & Chf HR Ofcr) 1,054 $242.11 $255,184.00 35,918 N/A view
S 2017-02-23 2017-02-24 16:09:18.0 NORTHROP GRUMMAN CORP /DE/ NOC Antkowiak Patrick M. officer (Corp VP & CTO) 207 $242.11 $50,116.80 6,238 N/A view
S 2017-02-21 2017-02-23 15:56:45.0 NORTHROP GRUMMAN CORP /DE/ NOC Peppard Denise M. officer (Corp VP & Chf HR Ofcr) 8,587 $242.09 $2,078,830.00 36,972 N/A view
S 2017-02-21 2017-02-23 15:56:06.0 NORTHROP GRUMMAN CORP /DE/ NOC Hardesty Michael A officer (Corp VP, Controller & CAO) 3,389 $242.09 $820,443.00 11,579 N/A view
S 2017-02-21 2017-02-23 15:56:00.0 NORTHROP GRUMMAN CORP /DE/ NOC FLACH GLORIA A officer (CVP & Chief Operating Officer) 3,158 $242.09 $764,520.00 79,000 N/A view
S 2017-02-21 2017-02-23 15:55:50.0 NORTHROP GRUMMAN CORP /DE/ NOC Antkowiak Patrick M. officer (Corp VP & CTO) 4,841 $242.09 $1,171,960.00 6,445 N/A view
S 2017-02-01 2017-02-02 17:48:18.0 NORTHROP GRUMMAN CORP /DE/ NOC Jones Christopher T officer (Corp VP & Pres Tech Svcs) 240 $228.72 $54,892.80 46,580 N/A view
S 2017-02-01 2017-02-02 17:47:17.0 NORTHROP GRUMMAN CORP /DE/ NOC Bedingfield Kenneth L officer (Corp VP, CFO) 128 $228.72 $29,276.20 17,998 N/A view
S 2017-01-03 2017-01-04 16:50:56.0 NORTHROP GRUMMAN CORP /DE/ NOC Jones Christopher T officer (Corp VP & Pres Tech Svcs) 240 $234.38 $56,251.20 46,820 N/A view
S 2017-01-03 2017-01-04 16:49:17.0 NORTHROP GRUMMAN CORP /DE/ NOC Bedingfield Kenneth L officer (Corp VP, CFO) 125 $234.38 $29,297.50 18,126 N/A view
S 2016-12-01 2016-12-02 17:59:08.0 NORTHROP GRUMMAN CORP /DE/ NOC Bedingfield Kenneth L officer (Corp VP, CFO) 125 $248.85 $31,106.20 18,251 N/A view
S 2016-12-01 2016-12-02 17:59:08.0 NORTHROP GRUMMAN CORP /DE/ NOC Jones Christopher T officer (Corp VP & Pres Tech Svcs) 240 $248.85 $59,724.00 47,060 N/A view
S 2016-11-15 2016-11-17 12:11:11.0 NORTHROP GRUMMAN CORP /DE/ NOC CHESTON SHEILA C. officer (Corp. VP & General Counsel) 3,394 $251.29 $852,878.00 37,288 N/A view
S 2016-11-07 2016-11-09 13:40:29.0 NORTHROP GRUMMAN CORP /DE/ NOC Peppard Denise M. officer (Corp VP & Chf HR Ofcr) 1,912 $228.42 $436,739.00 35,372 N/A view
S 2016-11-02 2016-11-04 09:12:34.0 NORTHROP GRUMMAN CORP /DE/ NOC BUSH WESLEY G director officer (Chairman, CEO and President) 35,000 $228.37 $7,992,950.00 0 N/A view
S 2016-11-01 2016-11-03 15:30:58.0 NORTHROP GRUMMAN CORP /DE/ NOC Bedingfield Kenneth L officer (Corp VP, CFO) 125 $229.50 $28,687.50 18,376 N/A view
S 2016-11-01 2016-11-03 15:30:58.0 NORTHROP GRUMMAN CORP /DE/ NOC Jones Christopher T officer (Corp VP & Pres Tech Svcs) 240 $229.50 $55,080.00 47,300 N/A view
S 2016-11-01 2016-11-03 15:30:51.0 NORTHROP GRUMMAN CORP /DE/ NOC Peppard Denise M. officer (Corp VP & Chf HR Ofcr) 2,015 $229.50 $462,442.00 37,284 N/A view
S 2016-10-03 2016-10-05 16:20:40.0 NORTHROP GRUMMAN CORP /DE/ NOC Jones Christopher T officer (Corp VP & Pres Tech Svcs) 240 $213.00 $51,120.00 47,540 N/A view
S 2016-10-03 2016-10-05 16:20:07.0 NORTHROP GRUMMAN CORP /DE/ NOC Bedingfield Kenneth L officer (Corp VP, CFO) 125 $213.00 $26,625.00 18,501 N/A view
S 2016-09-01 2016-09-02 16:16:21.0 NORTHROP GRUMMAN CORP /DE/ NOC Jones Christopher T officer (Corp VP & Pres Tech Svcs) 240 $212.20 $50,928.00 47,780 N/A view
S 2016-09-01 2016-09-02 16:15:32.0 NORTHROP GRUMMAN CORP /DE/ NOC Bedingfield Kenneth L officer (Corp VP, CFO) 125 $212.20 $26,525.00 18,626 N/A view
S 2016-08-15 2016-08-18 14:43:04.0 NORTHROP GRUMMAN CORP /DE/ NOC Caylor Mark A officer (Corp VP & Pres ES & CSO) 5,466 $218.27 $1,193,060.00 20,079 N/A view
S 2016-08-12 2016-08-16 12:54:48.0 NORTHROP GRUMMAN CORP /DE/ NOC VICE THOMAS E officer (Corp VP & Pres Aerospace Sys) 20,997 $217.94 $4,576,090.00 82,496 N/A view
S 2016-08-05 2016-08-08 15:42:36.0 NORTHROP GRUMMAN CORP /DE/ NOC FLACH GLORIA A officer (CVP & Chief Operating Officer) 3,769 $218.78 $824,582.00 61,812 N/A view
S 2016-08-03 2016-08-05 09:39:11.0 NORTHROP GRUMMAN CORP /DE/ NOC BUSH WESLEY G director officer (Chairman, CEO and President) 35,000 $218.45 $7,645,750.00 35,000 N/A view
S 2016-08-01 2016-08-02 17:49:56.0 NORTHROP GRUMMAN CORP /DE/ NOC Jones Christopher T officer (Corp VP & Pres Tech Svcs) 240 $215.86 $51,806.40 48,020 N/A view
S 2016-07-01 2016-07-05 10:37:43.0 NORTHROP GRUMMAN CORP /DE/ NOC Jones Christopher T officer (Corp VP & Pres Tech Svcs) 240 $222.50 $53,400.00 48,260 N/A view
S 2016-06-07 2016-06-09 15:59:05.0 NORTHROP GRUMMAN CORP /DE/ NOC CHESTON SHEILA C. officer (Corp. VP & General Counsel) 3,105 $215.52 $669,190.00 40,682 N/A view
S 2016-06-03 2016-06-07 16:52:13.0 NORTHROP GRUMMAN CORP /DE/ NOC Felsinger Donald E director 770 $215.67 $166,066.00 0 N/A view
S 2016-06-03 2016-06-07 16:52:13.0 NORTHROP GRUMMAN CORP /DE/ NOC Felsinger Donald E director 1,550 $215.64 $334,242.00 0 N/A view
S 2016-06-03 2016-06-07 16:52:13.0 NORTHROP GRUMMAN CORP /DE/ NOC Felsinger Donald E director 1,550 $215.70 $334,335.00 0 N/A view
S 2016-06-03 2016-06-07 16:52:13.0 NORTHROP GRUMMAN CORP /DE/ NOC Felsinger Donald E director 770 $215.76 $166,135.00 0 N/A view
S 2016-06-01 2016-06-02 17:36:05.0 NORTHROP GRUMMAN CORP /DE/ NOC Jones Christopher T officer (Corp VP & Pres Tech Svcs) 240 $211.57 $50,776.80 48,297 N/A view
S 2016-05-09 2016-05-11 16:14:07.0 NORTHROP GRUMMAN CORP /DE/ NOC Peppard Denise M. officer (Corp VP & Chf HR Ofcr) 1,260 $214.19 $269,879.00 39,300 N/A view
S 2016-05-10 2016-05-11 16:13:10.0 NORTHROP GRUMMAN CORP /DE/ NOC FLACH GLORIA A officer (CVP & Chief Operating Officer) 11,421 $215.77 $2,464,310.00 65,580 N/A view
S 2016-05-09 2016-05-11 16:13:10.0 NORTHROP GRUMMAN CORP /DE/ NOC FLACH GLORIA A officer (CVP & Chief Operating Officer) 29,666 $213.95 $6,347,040.00 77,002 N/A view
S 2016-05-04 2016-05-06 16:44:10.0 NORTHROP GRUMMAN CORP /DE/ NOC BUSH WESLEY G director officer (Chairman, CEO and President) 35,000 $209.96 $7,348,600.00 70,000 N/A view
S 2016-05-04 2016-05-06 16:29:53.0 NORTHROP GRUMMAN CORP /DE/ NOC Hardesty Michael A officer (Corp VP, Controller & CAO) 1,357 $209.53 $284,332.00 11,370 N/A view
S 2016-05-02 2016-05-04 17:21:28.0 NORTHROP GRUMMAN CORP /DE/ NOC CHESTON SHEILA C. officer (Corp. VP & General Counsel) 12,731 $206.49 $2,628,820.00 43,787 N/A view
S 2016-05-02 2016-05-04 17:21:28.0 NORTHROP GRUMMAN CORP /DE/ NOC Jones Christopher T officer (Corp VP & Pres Tech Svcs) 240 $206.87 $49,648.80 48,537 N/A view
S 2016-05-02 2016-05-04 17:18:28.0 NORTHROP GRUMMAN CORP /DE/ NOC Bedingfield Kenneth L officer (Corp VP, CFO) 1,679 $206.94 $347,452.00 18,751 N/A view
S 2016-03-10 2016-03-14 16:34:02.0 NORTHROP GRUMMAN CORP /DE/ NOC Warden Kathy J officer (Corp VP & Pres Mission Syst) 4,366 $189.00 $825,174.00 65,042 N/A view
S 2016-03-04 2016-03-07 16:44:19.0 NORTHROP GRUMMAN CORP /DE/ NOC VICE THOMAS E officer (Corp VP & Pres Aerospace Sys) 2,294 $191.07 $438,315.00 113,248 N/A view
S 2016-03-03 2016-03-07 16:37:13.0 NORTHROP GRUMMAN CORP /DE/ NOC CHESTON SHEILA C. officer (Corp. VP & General Counsel) 11,857 $190.04 $2,253,300.00 56,518 N/A view
S 2016-03-02 2016-03-07 08:09:36.0 NORTHROP GRUMMAN CORP /DE/ NOC Caylor Mark A officer (Corp VP & Pres ES & CSO) 7,717 $192.55 $1,485,910.00 25,545 N/A view
S 2016-02-22 2016-02-23 17:06:19.0 NORTHROP GRUMMAN CORP /DE/ NOC Perry David T officer (CVP Chief Global Bus Dev Off) 4,944 $190.78 $943,216.00 22,773 N/A view
S 2016-02-19 2016-02-23 17:06:19.0 NORTHROP GRUMMAN CORP /DE/ NOC Perry David T officer (CVP Chief Global Bus Dev Off) 8,254 $192.16 $1,586,090.00 23,916 N/A view
S 2016-02-17 2016-02-19 19:21:18.0 NORTHROP GRUMMAN CORP /DE/ NOC Caylor Mark A officer (Corp VP & Pres ES & CSO) 1,148 $185.61 $213,080.00 44,383 N/A view
S 2015-11-09 2015-11-12 08:42:45.0 NORTHROP GRUMMAN CORP /DE/ NOC Peppard Denise M. officer (Corp VP & Chf HR Ofcr) 4,944 $181.24 $896,051.00 30,402 N/A view
S 2015-11-04 2015-11-05 16:16:43.0 NORTHROP GRUMMAN CORP /DE/ NOC Warden Kathy J officer (Corp VP & Pres Info Syst) 4,697 $187.04 $878,508.00 31,980 N/A view
S 2015-11-02 2015-11-04 14:40:44.0 NORTHROP GRUMMAN CORP /DE/ NOC Perry David T officer (CVP Chief Global Bus Dev Off) 5,171 $189.54 $980,058.00 0 N/A view
S 2015-10-30 2015-11-03 13:20:13.0 NORTHROP GRUMMAN CORP /DE/ NOC Perry David T officer (CVP Chief Global Bus Dev Off) 900 $189.13 $170,213.00 15,661 N/A view
S 2015-09-09 2015-09-11 15:29:02.0 NORTHROP GRUMMAN CORP /DE/ NOC Jones Christopher T officer (Corp VP & Pres Tech Svcs) 1,600 $168.59 $269,744.00 17,095 N/A view
S 2015-09-09 2015-09-11 15:29:02.0 NORTHROP GRUMMAN CORP /DE/ NOC Jones Christopher T officer (Corp VP & Pres Tech Svcs) 400 $168.53 $67,412.00 18,695 N/A view
S 2015-08-03 2015-08-04 17:19:11.0 NORTHROP GRUMMAN CORP /DE/ NOC BUSH WESLEY G director officer (Chairman, CEO and President) 30,000 $172.09 $5,162,540.00 0 N/A view
S 2015-06-02 2015-06-04 16:04:44.0 NORTHROP GRUMMAN CORP /DE/ NOC Hardesty Michael A officer (Corp VP, Controller & CAO) 385 $160.35 $61,787.70 0 N/A view
S 2015-05-26 2015-05-28 16:23:43.0 NORTHROP GRUMMAN CORP /DE/ NOC Antkowiak Patrick M. officer (Corp VP & CTO) 4,009 $158.46 $635,330.00 0 N/A view
S 2015-05-13 2015-05-15 16:15:36.0 NORTHROP GRUMMAN CORP /DE/ NOC Perry David T officer (CVP Chief Global Bus Dev Off) 4,395 $155.38 $682,895.00 14,755 N/A view
S 2015-05-13 2015-05-15 16:14:00.0 NORTHROP GRUMMAN CORP /DE/ NOC Bedingfield Kenneth L officer (Corp VP, CFO) 2,450 $155.38 $380,681.00 12,452 N/A view
S 2015-05-04 2015-05-06 16:03:45.0 NORTHROP GRUMMAN CORP /DE/ NOC BUSH WESLEY G director officer (Chairman, CEO and President) 30,000 $156.23 $4,686,900.00 30,000 N/A view
S 2015-03-09 2015-03-11 16:03:46.0 NORTHROP GRUMMAN CORP /DE/ NOC PALMER JAMES F officer (Corp. VP) 19,150 $161.00 $3,083,150.00 222,074 -2.22% view
S 2015-03-05 2015-03-09 16:02:07.0 NORTHROP GRUMMAN CORP /DE/ NOC Caylor Mark A officer (Corp VP & Pres ES & CSO) 3,000 $163.89 $491,664.00 10,868 1.38% view
S 2015-03-05 2015-03-09 16:02:07.0 NORTHROP GRUMMAN CORP /DE/ NOC PALMER JAMES F officer (Corp. VP) 34,623 $163.43 $5,658,440.00 241,224 1.10% view
S 2015-03-05 2015-03-09 16:01:30.0 NORTHROP GRUMMAN CORP /DE/ NOC Antkowiak Patrick M. officer (Corp VP & CTO) 2,970 $163.25 $484,852.00 9,374 0.99% view
S 2015-03-02 2015-03-04 16:02:55.0 NORTHROP GRUMMAN CORP /DE/ NOC CHESTON SHEILA C. officer (Corp. VP & General Counsel) 15,657 $166.11 $2,600,780.00 44,662 2.70% view
S 2015-02-25 2015-02-27 16:03:50.0 NORTHROP GRUMMAN CORP /DE/ NOC Peppard Denise M. officer (Corp VP & Chf HR Ofcr) 10,583 $169.30 $1,791,700.00 29,910 5.97% view
S 2015-02-24 2015-02-26 16:03:39.0 NORTHROP GRUMMAN CORP /DE/ NOC ASHWORTH SID officer (Corp VP, Government Relations) 38,337 $170.01 $6,517,670.00 42,926 4.66% view
S 2015-02-20 2015-02-24 16:00:38.0 NORTHROP GRUMMAN CORP /DE/ NOC Hardesty Michael A officer (Corp VP, Controller & CAO) 4,172 $171.29 $714,622.00 12,376 5.06% view
S 2015-02-03 2015-02-05 16:14:07.0 NORTHROP GRUMMAN CORP /DE/ NOC BUSH WESLEY G director officer (Chairman, CEO and President) 30,000 $158.07 $4,742,100.00 60,000 -3.52% view
S 2014-12-09 2014-12-11 15:06:08.0 NORTHROP GRUMMAN CORP /DE/ NOC FRASER DARRYL M officer (Corp VP, Communications) 12,349 $145.38 $1,795,300.00 37,751 -5.06% view
S 2014-02-19 2014-11-21 14:17:25.0 NORTHROP GRUMMAN CORP /DE/ NOC CHESTON SHEILA C. officer (Corp. VP & General Counsel) 2,255 $119.11 $268,593.00 58,639 -3.17% view
S 2014-11-18 2014-11-20 14:41:00.0 NORTHROP GRUMMAN CORP /DE/ NOC VICE THOMAS E officer (Corp VP & Pres Aerospace Sys) 3,844 $138.27 $531,510.00 19,266 -7.43% view
S 2014-11-18 2014-11-20 14:38:54.0 NORTHROP GRUMMAN CORP /DE/ NOC MILLS LINDA A officer (Corp. VP, Operations) 27,460 $137.97 $3,788,660.00 4,540 -7.67% view
S 2014-11-12 2014-11-14 13:28:42.0 NORTHROP GRUMMAN CORP /DE/ NOC CHESTON SHEILA C. officer (Corp. VP & General Counsel) 7,847 $136.09 $1,067,900.00 31,259 -4.02% view
S 2014-11-11 2014-11-13 13:56:17.0 NORTHROP GRUMMAN CORP /DE/ NOC FLACH GLORIA A officer (Corp. VP & Pres Electronic Sys) 3,870 $135.88 $525,856.00 12,650 -7.24% view
S 2014-11-07 2014-11-12 08:00:12.0 NORTHROP GRUMMAN CORP /DE/ NOC FLACH GLORIA A officer (Corp. VP & Pres Electronic Sys) 32,397 $136.62 $4,426,080.00 8,779 -8.10% view
S 2014-11-04 2014-11-06 13:58:57.0 NORTHROP GRUMMAN CORP /DE/ NOC Peppard Denise M. officer (Corp VP & Chf HR Ofcr) 17,456 $138.57 $2,418,880.00 19,326 -0.92% view
S 2014-11-05 2014-11-06 13:58:57.0 NORTHROP GRUMMAN CORP /DE/ NOC PALMER JAMES F officer (Corp. VP & CFO) 15,130 $138.01 $2,088,090.00 210,000 -7.01% view
S 2014-11-03 2014-11-04 19:44:04.0 NORTHROP GRUMMAN CORP /DE/ NOC BUSH WESLEY G director officer (Chairman, CEO and President) 30,000 $137.03 $4,110,900.00 90,000 -2.88% view
S 2014-10-30 2014-11-03 16:53:31.0 NORTHROP GRUMMAN CORP /DE/ NOC ASHWORTH SID officer (Corp VP, Government Relations) 32,400 $136.89 $4,435,240.00 5,694 -2.95% view
S 2014-08-01 2014-08-05 14:29:03.0 NORTHROP GRUMMAN CORP /DE/ NOC BUSH WESLEY G director officer (Chairman, CEO and President) 30,000 $123.96 $3,718,800.00 120,000 -2.63% view
S 2014-05-23 2014-05-28 16:51:52.0 NORTHROP GRUMMAN CORP /DE/ NOC Jones Christopher T officer (Corp VP & Pres Tech Svcs) 100 $119.72 $11,972.20 6,969 -2.35% view
S 2014-05-23 2014-05-28 16:51:52.0 NORTHROP GRUMMAN CORP /DE/ NOC Jones Christopher T officer (Corp VP & Pres Tech Svcs) 70 $119.72 $8,380.40 7,069 -2.35% view
S 2014-05-01 2014-05-05 10:09:12.0 NORTHROP GRUMMAN CORP /DE/ NOC BUSH WESLEY G director officer (Chairman, CEO and President) 30,000 $121.10 $3,633,050.00 30,000 -0.37% view
S 2014-03-10 2014-03-12 16:35:27.0 NORTHROP GRUMMAN CORP /DE/ NOC SHARER KEVIN W director 6,562 $122.63 $804,722.00 38,945 4.46% view
S 2014-03-10 2014-03-12 16:34:21.0 NORTHROP GRUMMAN CORP /DE/ NOC PALMER JAMES F officer (Corp. VP & CFO) 12,013 $123.20 $1,479,990.00 225,130 4.90% view
S 2014-03-07 2014-03-11 10:06:45.0 NORTHROP GRUMMAN CORP /DE/ NOC MILLS LINDA A officer (Corp. VP, Operations) 54,807 $124.52 $6,824,470.00 19,661 4.20% view
S 2014-03-06 2014-03-07 16:32:34.0 NORTHROP GRUMMAN CORP /DE/ NOC Perry David T officer (CVP Chief Global Bus Dev Off) 5,399 $123.66 $667,640.00 10,359 2.40% view
S 2014-03-05 2014-03-07 16:32:24.0 NORTHROP GRUMMAN CORP /DE/ NOC MILLS LINDA A officer (Corp. VP, Operations) 59,736 $123.98 $7,405,970.00 10,264 2.65% view
S 2014-02-27 2014-03-03 16:22:54.0 NORTHROP GRUMMAN CORP /DE/ NOC Peppard Denise M. officer (Corp VP & Chf HR Ofcr) 4,548 $119.12 $541,742.00 11,961 -0.69% view
S 2014-02-24 2014-02-26 17:05:31.0 NORTHROP GRUMMAN CORP /DE/ NOC FLACH GLORIA A officer (Corp. VP & Pres Electronic Sys) 5,997 $120.89 $724,947.00 11,937 -0.11% view
S 2014-02-24 2014-02-25 16:35:26.0 NORTHROP GRUMMAN CORP /DE/ NOC PALMER JAMES F officer (Corp. VP & CFO) 20,415 $122.63 $2,503,450.00 237,143 1.31% view
S 2014-02-21 2014-02-25 16:35:26.0 NORTHROP GRUMMAN CORP /DE/ NOC PALMER JAMES F officer (Corp. VP & CFO) 2,984 $119.69 $357,164.00 358,262 -1.83% view
S 2014-02-24 2014-02-25 16:35:26.0 NORTHROP GRUMMAN CORP /DE/ NOC Hardesty Michael A officer (Corp VP, Controller & CAO) 3,620 $122.83 $444,647.00 8,204 1.47% view
S 2014-02-21 2014-02-25 16:31:01.0 NORTHROP GRUMMAN CORP /DE/ NOC CHESTON SHEILA C. officer (Corp. VP & General Counsel) 8,247 $119.76 $987,640.00 41,738 -1.77% view
S 2014-02-19 2014-02-21 12:10:27.0 NORTHROP GRUMMAN CORP /DE/ NOC FAZIO VIC director 3,281 $119.25 $391,249.00 33,696 -3.05% view
S 2014-02-18 2014-02-20 16:36:18.0 NORTHROP GRUMMAN CORP /DE/ NOC CHESTON SHEILA C. officer (Corp. VP & General Counsel) 14,615 $120.11 $1,755,440.00 34,949 -3.23% view
S 2014-02-12 2014-02-13 16:33:39.0 NORTHROP GRUMMAN CORP /DE/ NOC PETERS AULANA L director 281 $117.22 $32,938.50 20,736 -4.44% view
S 2014-02-12 2014-02-13 16:33:39.0 NORTHROP GRUMMAN CORP /DE/ NOC MILLS LINDA A officer (Corp. VP, Operations) 46,869 $118.01 $5,531,120.00 0 -3.74% view
S 2014-02-11 2014-02-13 16:32:40.0 NORTHROP GRUMMAN CORP /DE/ NOC BUSH WESLEY G director officer (Chairman, CEO and President) 30,000 $115.92 $3,477,460.00 60,000 -5.05% view
S 2013-12-10 2013-12-12 13:34:51.0 NORTHROP GRUMMAN CORP /DE/ NOC ASHWORTH SID officer (Corp VP, Government Relations) 35,161 $110.04 $3,869,240.00 14,529 -5.75% view
S 2013-12-03 2013-12-05 16:32:22.0 NORTHROP GRUMMAN CORP /DE/ NOC FLACH GLORIA A officer (Corp. VP & Pres Electronic Sys) 16,246 $112.14 $1,821,760.00 11,618 -1.29% view
S 2013-12-02 2013-12-04 16:32:52.0 NORTHROP GRUMMAN CORP /DE/ NOC VICE THOMAS E officer (Corp VP & Pres Aerospace Sys) 37,907 $112.51 $4,264,760.00 15,422 -0.64% view
S 2013-12-02 2013-12-04 16:32:52.0 NORTHROP GRUMMAN CORP /DE/ NOC VICE THOMAS E officer (Corp VP & Pres Aerospace Sys) 2,332 $112.39 $262,094.00 53,328 -0.75% view
S 2013-11-14 2013-11-18 16:42:44.0 NORTHROP GRUMMAN CORP /DE/ NOC CHESTON SHEILA C. officer (Corp. VP & General Counsel) 25,764 $110.00 $2,834,040.00 34,949 0.98% view
S 2013-11-13 2013-11-15 16:34:37.0 NORTHROP GRUMMAN CORP /DE/ NOC PALMER JAMES F officer (Corp. VP & CFO) 10,310 $109.06 $1,124,450.00 196,894 0.13% view
S 2013-11-12 2013-11-14 16:59:29.0 NORTHROP GRUMMAN CORP /DE/ NOC BUSH WESLEY G director officer (Chairman, CEO and President) 30,000 $109.18 $3,275,360.00 398,808 1.05% view
S 2013-11-07 2013-11-12 16:44:45.0 NORTHROP GRUMMAN CORP /DE/ NOC Peppard Denise M. officer (Corp VP & Chf HR Ofcr) 14,850 $108.83 $1,616,150.00 7,413 -1.31% view
S 2013-11-01 2013-11-05 16:36:51.0 NORTHROP GRUMMAN CORP /DE/ NOC FRASER DARRYL M officer (Corp VP, Communications) 7,200 $108.71 $782,683.00 31,077 -3.66% view
S 2013-11-01 2013-11-05 16:36:46.0 NORTHROP GRUMMAN CORP /DE/ NOC MILLS LINDA A officer (Corp. VP, Operations) 48,836 $108.14 $5,281,120.00 0 -4.20% view
S 2013-10-31 2013-11-04 16:35:39.0 NORTHROP GRUMMAN CORP /DE/ NOC FRASER DARRYL M officer (Corp VP, Communications) 52,264 $107.43 $5,614,690.00 38,277 -4.89% view
S 2013-10-28 2013-10-30 16:33:40.0 NORTHROP GRUMMAN CORP /DE/ NOC PETERS AULANA L director 3,000 $108.19 $324,584.00 20,377 -5.32% view
P 2013-10-25 2013-10-29 13:17:45.0 NORTHROP GRUMMAN CORP /DE/ NOC HERNANDEZ WILLIAM H director 1,000 $107.28 $107,280.00 1,045 4.07% view
S 2013-08-12 2013-08-14 17:57:15.0 NORTHROP GRUMMAN CORP /DE/ NOC Perry David T officer (CVP Chief Global Bus Dev Off) 1,900 $94.96 $180,428.00 4,960 -0.82% view
S 2013-08-02 2013-08-06 16:04:06.0 NORTHROP GRUMMAN CORP /DE/ NOC BUSH WESLEY G director officer (Chairman, CEO and President) 40,000 $94.94 $3,797,420.00 0 2.81% view
S 2013-08-02 2013-08-06 16:04:06.0 NORTHROP GRUMMAN CORP /DE/ NOC BUSH WESLEY G director officer (Chairman, CEO and President) 40,000 $94.94 $3,797,420.00 0 2.81% view
S 2013-08-02 2013-08-06 16:04:06.0 NORTHROP GRUMMAN CORP /DE/ NOC BUSH WESLEY G director officer (Chairman, CEO and President) 40,000 $94.94 $3,797,420.00 0 2.81% view
S 2013-06-06 2013-06-07 16:45:34.0 NORTHROP GRUMMAN CORP /DE/ NOC CHESTON SHEILA C. officer (Corp. VP & General Counsel) 45,177 $81.60 $3,686,220.00 31,555 -2.89% view
S 2013-06-04 2013-06-06 16:02:42.0 NORTHROP GRUMMAN CORP /DE/ NOC FRASER DARRYL M officer (Corp VP, Communications) 28,946 $82.77 $2,395,940.00 30,877 -0.19% view
S 2013-05-17 2013-05-21 10:53:52.0 NORTHROP GRUMMAN CORP /DE/ NOC VICE THOMAS E officer (Corp VP & Pres Aerospace Sys) 9,163 $81.72 $748,763.00 13,092 -2.39% view
S 2013-05-07 2013-05-09 16:48:09.0 NORTHROP GRUMMAN CORP /DE/ NOC Peppard Denise M. officer (Corp VP & Chf HR Ofcr) 15,854 $77.11 $1,222,500.00 3,486 -8.78% view
S 2013-04-30 2013-05-02 09:33:09.0 NORTHROP GRUMMAN CORP /DE/ NOC ASHWORTH SID officer (Corp VP, Government Relations) 9,680 $75.00 $726,000.00 9,690 -11.32% view
S 2013-03-06 2013-03-07 16:18:07.0 NORTHROP GRUMMAN CORP /DE/ NOC Hardesty Michael A officer (Corp VP, Controller & CAO) 3,500 $64.96 $227,360.00 10,960 -10.16% view
S 2012-12-10 2012-12-12 13:17:59.0 NORTHROP GRUMMAN CORP /DE/ NOC FRASER DARRYL M officer (Corp VP, Communications) 20,000 $68.01 $1,360,200.00 18,529 0.90% view
S 2012-12-07 2012-12-11 09:49:08.0 NORTHROP GRUMMAN CORP /DE/ NOC CHESTON SHEILA C. officer (Corp. VP & General Counsel) 4,991 $67.48 $336,793.00 11,956 -1.76% view
S 2012-11-12 2012-11-14 16:52:21.0 NORTHROP GRUMMAN CORP /DE/ NOC Perry David T officer (CVP Chief Global Bus Dev Off) 3,000 $65.19 $195,570.00 1,916 -4.54% view
P 2012-11-08 2012-11-13 10:37:07.0 NORTHROP GRUMMAN CORP /DE/ NOC SCHOEWE THOMAS M director 1,500 $66.49 $99,735.00 5,507 1.56% view
S 2012-11-07 2012-11-08 17:02:47.0 NORTHROP GRUMMAN CORP /DE/ NOC FLACH GLORIA A officer (CORP VP. PRES, ENT,SH SVCS) 6,320 $67.99 $429,697.00 21,260 0.68% view
S 2012-08-29 2012-08-31 16:38:18.0 NORTHROP GRUMMAN CORP /DE/ NOC CHESTON SHEILA C. officer (Corp. VP & General Counsel) 5,266 $67.30 $354,402.00 6,965 1.29% view
S 2012-08-24 2012-08-28 18:17:01.0 NORTHROP GRUMMAN CORP /DE/ NOC CHESTON SHEILA C. officer (Corp. VP & General Counsel) 46,532 $67.30 $3,131,600.00 12,231 1.10% view
S 2012-08-17 2012-08-20 16:01:40.0 NORTHROP GRUMMAN CORP /DE/ NOC PITTS JAMES F officer (Corp VP & Pres Electronic Sys) 19,000 $69.12 $1,313,280.00 2,829 3.82% view
S 2012-08-15 2012-08-17 16:04:45.0 NORTHROP GRUMMAN CORP /DE/ NOC ERVIN GARY W. officer (Corp VP & Pres Aerospace Sys) 13,125 $68.24 $895,650.00 0 2.80% view
S 2012-08-10 2012-08-14 16:20:44.0 NORTHROP GRUMMAN CORP /DE/ NOC Perry David T officer (CVP Chief Global Bus Dev Off) 2,657 $68.18 $181,154.00 4,916 1.66% view
S 2012-08-10 2012-08-14 16:16:18.0 NORTHROP GRUMMAN CORP /DE/ NOC VICE THOMAS E officer (Corp VP & Pres Tech Servs) 26,165 $68.17 $1,783,670.00 2,332 1.64% view
S 2012-08-06 2012-08-08 16:45:02.0 NORTHROP GRUMMAN CORP /DE/ NOC VICE THOMAS E officer (Corp VP & Pres Tech Servs) 18,998 $66.53 $1,263,940.00 2,332 -1.74% view
S 2012-07-31 2012-08-02 17:23:39.0 NORTHROP GRUMMAN CORP /DE/ NOC ERVIN GARY W. officer (Corp VP & Pres Aerospace Sys) 47,869 $66.25 $3,171,320.00 0 -0.97% view
P 2012-07-31 2012-08-01 19:15:41.0 NORTHROP GRUMMAN CORP /DE/ NOC BUSH WESLEY G CEO 1,000 $66.25 $66,250.00 277,974 0.97% view
P 2012-02-22 2012-02-23 17:06:40.0 NORTHROP GRUMMAN CORP /DE/ NOC SCHOEWE THOMAS M director 1,660 $60.07 $99,716.20 1,660 1.50% view
S 2012-02-22 2012-02-23 17:06:11.0 NORTHROP GRUMMAN CORP /DE/ NOC PETERS AULANA L director 3,281 $60.05 $197,024.00 16,381 -1.53% view
S 2012-02-21 2012-02-23 17:05:26.0 NORTHROP GRUMMAN CORP /DE/ NOC VICE THOMAS E officer (Corp VP & Pres Tech Servs) 50,978 $60.06 $3,061,740.00 14,948 -1.28% view
S 2012-02-22 2012-02-23 17:04:24.0 NORTHROP GRUMMAN CORP /DE/ NOC ERVIN GARY W. officer (Corp VP & Pres Aerospace Sys) 20,435 $60.08 $1,227,730.00 0 -1.48% view
S 2012-02-17 2012-02-22 16:03:32.0 NORTHROP GRUMMAN CORP /DE/ NOC ERVIN GARY W. officer (Corp VP & Pres Aerospace Sys) 45,000 $59.59 $2,681,550.00 20,435 -4.03% view
S 2012-02-17 2012-02-22 16:03:32.0 NORTHROP GRUMMAN CORP /DE/ NOC ERVIN GARY W. officer (Corp VP & Pres Aerospace Sys) 13,125 $59.82 $785,138.00 20,435 -3.63% view
S 2012-02-21 2012-02-22 16:02:53.0 NORTHROP GRUMMAN CORP /DE/ NOC PITTS JAMES F officer (Corp VP & Pres Electronic Sys) 56,406 $60.09 $3,389,440.00 38,863 -1.23% view
P 2011-11-07 2011-11-09 16:40:07.0 NORTHROP GRUMMAN CORP /DE/ NOC MILLS LINDA A officer (Corp. VP & Pres Info Sys) 885 $58.24 $51,534.60 10,776 -2.92% view
P 2011-11-07 2011-11-09 16:40:07.0 NORTHROP GRUMMAN CORP /DE/ NOC MILLS LINDA A officer (Corp. VP & Pres Info Sys) 490 $57.38 $28,116.20 86,498 -1.46% view
P 2011-08-19 2011-09-02 18:46:02.0 NORTHROP GRUMMAN CORP /DE/ NOC BUSH WESLEY G CEO 5,000 $49.75 $248,750.00 147,668 8.30% view
P 2011-08-19 2011-08-23 13:35:45.0 NORTHROP GRUMMAN CORP /DE/ NOC BUSH WESLEY G CEO 5,000 $49.75 $248,750.00 147,688 8.30% view
S 2011-08-11 2011-08-12 19:51:09.0 NORTHROP GRUMMAN CORP /DE/ NOC VICE THOMAS E officer (Corp VP & Pres Tech Servs) 9,843 $50.11 $493,233.00 85,280 -3.39% view
P 2011-05-19 2011-05-20 15:05:45.0 NORTHROP GRUMMAN CORP /DE/ NOC HEINTZ KENNETH N officer (Corporate VP, Controller & CAO) 2,563 $64.76 $165,980.00 78,088 -0.11% view
S 2011-05-11 2011-05-13 17:21:21.0 NORTHROP GRUMMAN CORP /DE/ NOC ERVIN GARY W. officer (Corp VP & Pres Aerospace Sys) 14,749 $64.92 $957,505.00 10,154 3.71% view
S 2011-05-06 2011-05-09 19:51:52.0 NORTHROP GRUMMAN CORP /DE/ NOC RABINOWITZ MARK officer (Corp. VP & Treasurer) 2,296 $64.90 $149,010.00 36,977 2.67% view
S 2011-05-06 2011-05-09 19:51:52.0 NORTHROP GRUMMAN CORP /DE/ NOC RABINOWITZ MARK officer (Corp. VP & Treasurer) 5,445 $64.77 $352,673.00 36,977 2.47% view
S 2011-05-06 2011-05-09 19:51:52.0 NORTHROP GRUMMAN CORP /DE/ NOC RABINOWITZ MARK officer (Corp. VP & Treasurer) 4,375 $64.80 $283,500.00 36,977 2.52% view
S 2011-05-06 2011-05-09 19:51:52.0 NORTHROP GRUMMAN CORP /DE/ NOC RABINOWITZ MARK officer (Corp. VP & Treasurer) 3,281 $64.85 $212,773.00 36,977 2.59% view
S 2011-05-04 2011-05-06 18:36:10.0 NORTHROP GRUMMAN CORP /DE/ NOC COLEMAN LEWIS W director 3,281 $64.83 $212,707.00 0 2.05% view
S 2011-05-04 2011-05-06 18:36:10.0 NORTHROP GRUMMAN CORP /DE/ NOC COLEMAN LEWIS W director 3,281 $64.83 $212,707.00 0 2.05% view
S 2011-05-04 2011-05-06 18:36:10.0 NORTHROP GRUMMAN CORP /DE/ NOC COLEMAN LEWIS W director 1,641 $64.83 $106,386.00 0 2.05% view
S 2011-05-04 2011-05-06 18:36:10.0 NORTHROP GRUMMAN CORP /DE/ NOC COLEMAN LEWIS W director 1,641 $64.85 $106,419.00 0 2.08% view
S 2011-05-04 2011-05-06 18:36:10.0 NORTHROP GRUMMAN CORP /DE/ NOC COLEMAN LEWIS W director 1,641 $64.86 $106,435.00 0 2.10% view
S 2011-05-04 2011-05-06 18:36:10.0 NORTHROP GRUMMAN CORP /DE/ NOC COLEMAN LEWIS W director 5,094 $64.82 $330,193.00 0 2.04% view
S 2011-05-04 2011-05-05 20:16:59.0 NORTHROP GRUMMAN CORP /DE/ NOC MILLS LINDA A officer (Corp. VP & Pres Info Sys) 8,750 $65.07 $569,362.00 91,839 2.41% view
S 2011-05-03 2011-05-05 19:37:26.0 NORTHROP GRUMMAN CORP /DE/ NOC ERVIN GARY W. officer (Corp VP & Pres Aerospace Sys) 45,000 $64.83 $2,917,350.00 137,348 2.05% view
S 2011-04-29 2011-05-02 21:20:45.0 NORTHROP GRUMMAN CORP /DE/ NOC LIVANOS ALEXANDER C officer (Corp VP & Chf Tech Officer) 51,040 $62.69 $3,199,700.00 67,455 -3.51% view
S 2011-04-29 2011-05-02 21:20:45.0 NORTHROP GRUMMAN CORP /DE/ NOC LIVANOS ALEXANDER C officer (Corp VP & Chf Tech Officer) 4,375 $62.57 $273,744.00 67,455 -3.71% view
S 2011-04-29 2011-05-02 21:20:45.0 NORTHROP GRUMMAN CORP /DE/ NOC LIVANOS ALEXANDER C officer (Corp VP & Chf Tech Officer) 3,828 $62.57 $239,518.00 67,455 -3.71% view
S 2010-11-15 2010-11-16 18:53:20.0 NORTHROP GRUMMAN CORP /DE/ NOC PETERS AULANA L director 3,000 $63.32 $189,969.00 12,475 -0.67% view
S 2010-11-15 2010-11-16 18:53:20.0 NORTHROP GRUMMAN CORP /DE/ NOC PETERS AULANA L director 3,000 $63.32 $189,948.00 12,475 -0.69% view
S 2010-11-15 2010-11-16 18:53:20.0 NORTHROP GRUMMAN CORP /DE/ NOC PETERS AULANA L director 3,000 $63.31 $189,930.00 12,475 -0.69% view
S 2010-11-10 2010-11-12 17:12:39.0 NORTHROP GRUMMAN CORP /DE/ NOC ERVIN GARY W. officer (Corp VP & Pres Aerospace Sys) 2,000 $65.07 $130,140.00 83,724 1.40% view
S 2010-11-10 2010-11-12 17:11:48.0 NORTHROP GRUMMAN CORP /DE/ NOC FRASER DARRYL M officer (Corp VP, Communications) 14,000 $65.16 $912,254.00 31,893 1.54% view
S 2010-11-10 2010-11-12 17:11:48.0 NORTHROP GRUMMAN CORP /DE/ NOC FRASER DARRYL M officer (Corp VP, Communications) 4,000 $65.21 $260,836.00 31,893 1.61% view
S 2010-11-10 2010-11-12 17:11:48.0 NORTHROP GRUMMAN CORP /DE/ NOC FRASER DARRYL M officer (Corp VP, Communications) 4,000 $65.26 $261,032.00 31,893 1.68% view
S 2010-08-03 2010-08-04 20:14:09.0 NORTHROP GRUMMAN CORP /DE/ NOC MILLS LINDA A officer (Corp. VP & Pres Info Sys) 7,000 $58.85 $411,950.00 60,650 1.75% view
S 2010-05-07 2010-05-11 16:32:45.0 NORTHROP GRUMMAN CORP /DE/ NOC FLACH GLORIA A officer (CORP VP. PRES, ENT,SH SVCS) 1,426 $64.33 $91,734.60 38,579 11.25% view
S 2010-05-06 2010-05-07 19:00:24.0 NORTHROP GRUMMAN CORP /DE/ NOC COLEMAN LEWIS W director 2,880 $66.52 $191,575.00 4,692 12.45% view
S 2010-03-12 2010-03-15 21:43:33.0 NORTHROP GRUMMAN CORP /DE/ NOC YSLAS STEPHEN D officer (Corp. VP & General Counsel) 632 $64.02 $40,460.60 90,693 -3.44% view
S 2009-11-13 2009-11-16 18:17:11.0 NORTHROP GRUMMAN CORP /DE/ NOC SUGAR RONALD D director officer other (Chief Executive Officer) 60,000 $55.00 $3,300,000.00 265,229 -0.29% view
S 2009-11-12 2009-11-16 17:59:00.0 NORTHROP GRUMMAN CORP /DE/ NOC MILLS LINDA A officer (Corp. VP & Pres Info Sys) 4,286 $54.61 $234,058.00 40,400 -1.01% view
S 2009-10-29 2009-10-30 18:41:18.0 NORTHROP GRUMMAN CORP /DE/ NOC SUGAR RONALD D director officer other (Chief Executive Officer) 13,334 $50.18 $669,065.00 265,229 -9.61% view
S 2009-09-17 2009-09-18 19:21:34.0 NORTHROP GRUMMAN CORP /DE/ NOC SUGAR RONALD D director officer other (Chief Executive Officer) 13,333 $50.00 $666,650.00 265,229 -1.60% view
S 2009-05-13 2009-05-14 15:29:25.0 NORTHROP GRUMMAN CORP /DE/ NOC BUSH WESLEY G officer (Pres. & Chf. Operating Officer) 1 $47.98 $47.98 77,229 -1.54% view
S 2009-05-05 2009-05-06 19:34:51.0 NORTHROP GRUMMAN CORP /DE/ NOC SUGAR RONALD D director officer other (Chief Executive Officer) 13,333 $50.00 $666,650.00 483,941 3.24% view
S 2009-04-30 2009-05-01 20:59:32.0 NORTHROP GRUMMAN CORP /DE/ NOC TEEL PHILIP A officer (Corporate Vice President) 20,000 $48.23 $964,600.00 73,457 1.26% view
S 2009-04-28 2009-04-29 19:02:05.0 NORTHROP GRUMMAN CORP /DE/ NOC BUSH WESLEY G officer (Pres. & Chf. Operating Officer) 41,049 $48.27 $1,981,440.00 77,230 0.64% view
S 2009-02-19 2009-02-20 19:24:00.0 NORTHROP GRUMMAN CORP /DE/ NOC YSLAS STEPHEN D officer (Corp. VP & General Counsel) 425 $45.63 $19,392.80 80,251 14.95% view
S 2009-02-12 2009-02-13 18:39:30.0 NORTHROP GRUMMAN CORP /DE/ NOC FRASER DARRYL M officer (Corp. VP, Communications) 1,000 $45.23 $45,230.00 15,593 19.41% view
S 2008-08-22 2008-08-25 18:45:38.0 NORTHROP GRUMMAN CORP /DE/ NOC PETERS AULANA L director 3,000 $69.97 $209,910.00 12,729 8.39% view
P 2008-08-05 2008-08-06 13:29:59.0 NORTHROP GRUMMAN CORP /DE/ NOC Frost Gamma Investments Trust director other 10,000 $66.69 $666,916.00 61,922 5.04% view
S 2008-04-29 2008-05-01 19:14:13.0 NORTHROP GRUMMAN CORP /DE/ NOC COLEMAN LEWIS W director 1,500 $74.32 $111,480.00 7,572 -0.71% view
S 2008-04-29 2008-05-01 19:14:13.0 NORTHROP GRUMMAN CORP /DE/ NOC COLEMAN LEWIS W director 1,500 $74.29 $111,435.00 9,072 -0.75% view
S 2008-04-29 2008-05-01 19:14:13.0 NORTHROP GRUMMAN CORP /DE/ NOC COLEMAN LEWIS W director 1,500 $74.30 $111,450.00 10,572 -0.74% view
P 2008-04-29 2008-05-01 19:11:34.0 NORTHROP GRUMMAN CORP /DE/ NOC Frost Gamma Investment Trust director other 10,000 $74.37 $743,690.00 51,922 0.65% view
S 2008-03-04 2008-03-06 21:55:17.0 NORTHROP GRUMMAN CORP /DE/ NOC HELM ROBERT W officer (Corp.VP, Bus Dev & Gov. Rel.) 75,000 $80.21 $6,016,100.00 87,128 2.35% view
S 2008-03-04 2008-03-06 20:15:36.0 NORTHROP GRUMMAN CORP /DE/ NOC LIVANOS ALEXANDER C officer (Corp. VP & Pres. Space Tech.) 5,263 $81.00 $426,303.00 47,400 3.30% view
S 2008-03-04 2008-03-06 20:15:36.0 NORTHROP GRUMMAN CORP /DE/ NOC LIVANOS ALEXANDER C officer (Corp. VP & Pres. Space Tech.) 9,100 $80.50 $732,550.00 52,663 2.70% view
S 2008-03-04 2008-03-06 20:15:36.0 NORTHROP GRUMMAN CORP /DE/ NOC LIVANOS ALEXANDER C officer (Corp. VP & Pres. Space Tech.) 100 $80.46 $8,046.00 61,763 2.65% view
S 2008-03-04 2008-03-06 20:15:36.0 NORTHROP GRUMMAN CORP /DE/ NOC LIVANOS ALEXANDER C officer (Corp. VP & Pres. Space Tech.) 1,100 $80.45 $88,495.00 61,863 2.64% view
S 2008-03-04 2008-03-06 20:15:36.0 NORTHROP GRUMMAN CORP /DE/ NOC LIVANOS ALEXANDER C officer (Corp. VP & Pres. Space Tech.) 200 $80.44 $16,089.00 62,963 2.63% view
S 2008-03-04 2008-03-06 20:15:36.0 NORTHROP GRUMMAN CORP /DE/ NOC LIVANOS ALEXANDER C officer (Corp. VP & Pres. Space Tech.) 237 $80.44 $19,064.30 63,163 2.62% view
S 2008-03-04 2008-03-06 20:15:36.0 NORTHROP GRUMMAN CORP /DE/ NOC LIVANOS ALEXANDER C officer (Corp. VP & Pres. Space Tech.) 2,000 $80.43 $160,860.00 63,400 2.61% view
S 2008-03-04 2008-03-06 20:15:36.0 NORTHROP GRUMMAN CORP /DE/ NOC LIVANOS ALEXANDER C officer (Corp. VP & Pres. Space Tech.) 100 $80.42 $8,042.00 65,400 2.60% view
S 2008-03-04 2008-03-06 20:15:36.0 NORTHROP GRUMMAN CORP /DE/ NOC LIVANOS ALEXANDER C officer (Corp. VP & Pres. Space Tech.) 500 $80.40 $40,200.00 65,500 2.57% view
S 2008-03-04 2008-03-06 20:15:36.0 NORTHROP GRUMMAN CORP /DE/ NOC LIVANOS ALEXANDER C officer (Corp. VP & Pres. Space Tech.) 1,200 $80.39 $96,468.00 66,000 2.56% view
S 2008-03-04 2008-03-06 20:15:36.0 NORTHROP GRUMMAN CORP /DE/ NOC LIVANOS ALEXANDER C officer (Corp. VP & Pres. Space Tech.) 1,700 $80.36 $136,612.00 67,200 2.53% view
S 2008-03-04 2008-03-06 20:15:36.0 NORTHROP GRUMMAN CORP /DE/ NOC LIVANOS ALEXANDER C officer (Corp. VP & Pres. Space Tech.) 800 $80.35 $64,280.00 68,900 2.51% view
S 2008-03-04 2008-03-06 20:15:36.0 NORTHROP GRUMMAN CORP /DE/ NOC LIVANOS ALEXANDER C officer (Corp. VP & Pres. Space Tech.) 213 $80.34 $17,112.40 69,700 2.50% view
S 2008-03-04 2008-03-06 20:15:36.0 NORTHROP GRUMMAN CORP /DE/ NOC LIVANOS ALEXANDER C officer (Corp. VP & Pres. Space Tech.) 187 $80.33 $15,022.60 69,913 2.50% view
S 2008-03-04 2008-03-06 20:15:36.0 NORTHROP GRUMMAN CORP /DE/ NOC LIVANOS ALEXANDER C officer (Corp. VP & Pres. Space Tech.) 300 $80.33 $24,099.00 70,100 2.49% view
S 2008-03-04 2008-03-06 20:15:36.0 NORTHROP GRUMMAN CORP /DE/ NOC LIVANOS ALEXANDER C officer (Corp. VP & Pres. Space Tech.) 1,700 $80.32 $136,544.00 70,400 2.48% view
S 2008-03-04 2008-03-06 20:15:36.0 NORTHROP GRUMMAN CORP /DE/ NOC LIVANOS ALEXANDER C officer (Corp. VP & Pres. Space Tech.) 100 $80.31 $8,031.00 72,100 2.47% view
S 2008-03-04 2008-03-06 20:15:36.0 NORTHROP GRUMMAN CORP /DE/ NOC LIVANOS ALEXANDER C officer (Corp. VP & Pres. Space Tech.) 200 $80.30 $16,060.00 72,200 2.45% view
S 2008-03-04 2008-03-06 20:15:36.0 NORTHROP GRUMMAN CORP /DE/ NOC LIVANOS ALEXANDER C officer (Corp. VP & Pres. Space Tech.) 100 $80.29 $8,029.00 72,400 2.44% view
S 2008-03-04 2008-03-06 20:15:36.0 NORTHROP GRUMMAN CORP /DE/ NOC LIVANOS ALEXANDER C officer (Corp. VP & Pres. Space Tech.) 200 $80.25 $16,050.00 72,500 2.39% view
S 2008-03-04 2008-03-06 20:15:36.0 NORTHROP GRUMMAN CORP /DE/ NOC LIVANOS ALEXANDER C officer (Corp. VP & Pres. Space Tech.) 200 $80.24 $16,048.00 72,700 2.38% view
S 2008-03-04 2008-03-06 20:15:36.0 NORTHROP GRUMMAN CORP /DE/ NOC LIVANOS ALEXANDER C officer (Corp. VP & Pres. Space Tech.) 100 $80.23 $8,023.00 72,900 2.37% view
S 2008-03-04 2008-03-06 20:15:36.0 NORTHROP GRUMMAN CORP /DE/ NOC LIVANOS ALEXANDER C officer (Corp. VP & Pres. Space Tech.) 200 $80.23 $16,045.40 73,000 2.36% view
S 2008-03-04 2008-03-06 20:15:14.0 NORTHROP GRUMMAN CORP /DE/ NOC LIVANOS ALEXANDER C officer (Corp. VP & Pres. Space Tech.) 300 $80.22 $24,065.40 73,200 2.35% view
S 2008-03-04 2008-03-06 20:15:14.0 NORTHROP GRUMMAN CORP /DE/ NOC LIVANOS ALEXANDER C officer (Corp. VP & Pres. Space Tech.) 1,100 $80.21 $88,231.00 73,500 2.34% view
S 2008-03-04 2008-03-06 20:15:14.0 NORTHROP GRUMMAN CORP /DE/ NOC LIVANOS ALEXANDER C officer (Corp. VP & Pres. Space Tech.) 700 $80.21 $56,145.60 74,600 2.34% view
S 2008-03-04 2008-03-06 20:15:14.0 NORTHROP GRUMMAN CORP /DE/ NOC LIVANOS ALEXANDER C officer (Corp. VP & Pres. Space Tech.) 400 $80.21 $32,082.00 75,300 2.34% view
S 2008-03-04 2008-03-06 20:15:14.0 NORTHROP GRUMMAN CORP /DE/ NOC LIVANOS ALEXANDER C officer (Corp. VP & Pres. Space Tech.) 2,400 $80.20 $192,480.00 75,700 2.33% view
S 2008-03-04 2008-03-06 20:15:14.0 NORTHROP GRUMMAN CORP /DE/ NOC LIVANOS ALEXANDER C officer (Corp. VP & Pres. Space Tech.) 1,800 $80.19 $144,342.00 78,100 2.32% view
S 2008-03-04 2008-03-06 20:15:14.0 NORTHROP GRUMMAN CORP /DE/ NOC LIVANOS ALEXANDER C officer (Corp. VP & Pres. Space Tech.) 2,300 $80.18 $184,414.00 79,900 2.31% view
S 2008-03-04 2008-03-06 20:15:14.0 NORTHROP GRUMMAN CORP /DE/ NOC LIVANOS ALEXANDER C officer (Corp. VP & Pres. Space Tech.) 2,700 $80.17 $216,459.00 82,200 2.30% view
S 2008-03-04 2008-03-06 20:15:14.0 NORTHROP GRUMMAN CORP /DE/ NOC LIVANOS ALEXANDER C officer (Corp. VP & Pres. Space Tech.) 2,300 $80.16 $184,368.00 84,900 2.28% view
S 2008-03-04 2008-03-06 20:15:14.0 NORTHROP GRUMMAN CORP /DE/ NOC LIVANOS ALEXANDER C officer (Corp. VP & Pres. Space Tech.) 1,000 $80.15 $80,150.00 87,200 2.27% view
S 2008-03-04 2008-03-06 20:15:14.0 NORTHROP GRUMMAN CORP /DE/ NOC LIVANOS ALEXANDER C officer (Corp. VP & Pres. Space Tech.) 400 $80.14 $32,056.00 88,200 2.26% view
S 2008-03-04 2008-03-06 20:15:14.0 NORTHROP GRUMMAN CORP /DE/ NOC LIVANOS ALEXANDER C officer (Corp. VP & Pres. Space Tech.) 1,900 $80.13 $152,247.00 88,600 2.25% view
S 2008-03-04 2008-03-06 20:15:14.0 NORTHROP GRUMMAN CORP /DE/ NOC LIVANOS ALEXANDER C officer (Corp. VP & Pres. Space Tech.) 800 $80.12 $64,096.00 90,500 2.23% view
S 2008-03-04 2008-03-06 20:15:14.0 NORTHROP GRUMMAN CORP /DE/ NOC LIVANOS ALEXANDER C officer (Corp. VP & Pres. Space Tech.) 100 $80.11 $8,011.50 91,300 2.23% view
S 2008-03-04 2008-03-06 20:15:14.0 NORTHROP GRUMMAN CORP /DE/ NOC LIVANOS ALEXANDER C officer (Corp. VP & Pres. Space Tech.) 770 $80.11 $61,684.70 91,400 2.22% view
S 2008-03-04 2008-03-06 20:15:14.0 NORTHROP GRUMMAN CORP /DE/ NOC LIVANOS ALEXANDER C officer (Corp. VP & Pres. Space Tech.) 100 $80.10 $8,010.00 92,170 2.21% view
S 2008-03-04 2008-03-06 20:15:14.0 NORTHROP GRUMMAN CORP /DE/ NOC LIVANOS ALEXANDER C officer (Corp. VP & Pres. Space Tech.) 500 $80.09 $40,045.00 92,270 2.20% view
S 2008-03-04 2008-03-06 20:14:02.0 NORTHROP GRUMMAN CORP /DE/ NOC TEEL PHILIP A officer (Corp VP & Pres Elec Miss. Sys.) 500 $80.24 $40,120.00 101,392 2.38% view
S 2008-03-04 2008-03-06 20:14:02.0 NORTHROP GRUMMAN CORP /DE/ NOC TEEL PHILIP A officer (Corp VP & Pres Elec Miss. Sys.) 500 $80.23 $40,115.00 101,892 2.37% view
S 2008-03-04 2008-03-06 20:14:02.0 NORTHROP GRUMMAN CORP /DE/ NOC TEEL PHILIP A officer (Corp VP & Pres Elec Miss. Sys.) 600 $80.23 $48,136.20 102,392 2.36% view
S 2008-03-04 2008-03-06 20:14:02.0 NORTHROP GRUMMAN CORP /DE/ NOC TEEL PHILIP A officer (Corp VP & Pres Elec Miss. Sys.) 300 $80.22 $24,065.40 102,992 2.35% view
S 2008-03-04 2008-03-06 20:14:02.0 NORTHROP GRUMMAN CORP /DE/ NOC TEEL PHILIP A officer (Corp VP & Pres Elec Miss. Sys.) 800 $80.21 $64,168.00 103,292 2.34% view
S 2008-03-04 2008-03-06 20:14:02.0 NORTHROP GRUMMAN CORP /DE/ NOC TEEL PHILIP A officer (Corp VP & Pres Elec Miss. Sys.) 800 $80.21 $64,166.40 104,092 2.34% view
S 2008-03-04 2008-03-06 20:14:02.0 NORTHROP GRUMMAN CORP /DE/ NOC TEEL PHILIP A officer (Corp VP & Pres Elec Miss. Sys.) 900 $80.20 $72,180.00 104,892 2.33% view
S 2008-03-04 2008-03-06 20:14:02.0 NORTHROP GRUMMAN CORP /DE/ NOC TEEL PHILIP A officer (Corp VP & Pres Elec Miss. Sys.) 600 $80.20 $48,118.80 105,792 2.33% view
S 2008-03-04 2008-03-06 20:14:02.0 NORTHROP GRUMMAN CORP /DE/ NOC TEEL PHILIP A officer (Corp VP & Pres Elec Miss. Sys.) 200 $80.19 $16,038.00 106,392 2.32% view
S 2008-03-04 2008-03-06 20:14:02.0 NORTHROP GRUMMAN CORP /DE/ NOC TEEL PHILIP A officer (Corp VP & Pres Elec Miss. Sys.) 2,400 $80.18 $192,432.00 106,592 2.31% view
S 2008-03-04 2008-03-06 20:14:02.0 NORTHROP GRUMMAN CORP /DE/ NOC TEEL PHILIP A officer (Corp VP & Pres Elec Miss. Sys.) 1,000 $80.17 $80,170.00 108,992 2.30% view
S 2008-03-04 2008-03-06 20:14:02.0 NORTHROP GRUMMAN CORP /DE/ NOC TEEL PHILIP A officer (Corp VP & Pres Elec Miss. Sys.) 1,500 $80.16 $120,240.00 109,992 2.28% view
S 2008-03-04 2008-03-06 20:14:02.0 NORTHROP GRUMMAN CORP /DE/ NOC TEEL PHILIP A officer (Corp VP & Pres Elec Miss. Sys.) 1,300 $80.15 $104,195.00 111,492 2.27% view
S 2008-03-04 2008-03-06 20:14:02.0 NORTHROP GRUMMAN CORP /DE/ NOC TEEL PHILIP A officer (Corp VP & Pres Elec Miss. Sys.) 1,100 $80.14 $88,154.00 112,792 2.26% view
S 2008-03-04 2008-03-06 20:14:02.0 NORTHROP GRUMMAN CORP /DE/ NOC TEEL PHILIP A officer (Corp VP & Pres Elec Miss. Sys.) 5,200 $80.13 $416,676.00 113,892 2.25% view
S 2008-03-04 2008-03-06 20:14:02.0 NORTHROP GRUMMAN CORP /DE/ NOC TEEL PHILIP A officer (Corp VP & Pres Elec Miss. Sys.) 300 $80.11 $24,034.50 119,092 2.23% view
S 2008-03-04 2008-03-06 20:14:02.0 NORTHROP GRUMMAN CORP /DE/ NOC TEEL PHILIP A officer (Corp VP & Pres Elec Miss. Sys.) 1,200 $80.10 $96,120.00 119,392 2.21% view
S 2008-03-04 2008-03-06 20:14:02.0 NORTHROP GRUMMAN CORP /DE/ NOC TEEL PHILIP A officer (Corp VP & Pres Elec Miss. Sys.) 800 $80.09 $64,072.00 120,592 2.20% view
S 2008-03-04 2008-03-06 20:11:50.0 NORTHROP GRUMMAN CORP /DE/ NOC PITTS JAMES F officer (Corp VP & Pres, Electron. Sys.) 233 $81.30 $18,942.90 64,444 3.65% view
S 2008-03-04 2008-03-06 20:11:50.0 NORTHROP GRUMMAN CORP /DE/ NOC PITTS JAMES F officer (Corp VP & Pres, Electron. Sys.) 7,200 $81.26 $585,072.00 64,677 3.61% view
S 2008-03-04 2008-03-06 20:11:50.0 NORTHROP GRUMMAN CORP /DE/ NOC PITTS JAMES F officer (Corp VP & Pres, Electron. Sys.) 1,700 $81.25 $138,125.00 71,877 3.59% view
S 2008-03-04 2008-03-06 20:11:50.0 NORTHROP GRUMMAN CORP /DE/ NOC PITTS JAMES F officer (Corp VP & Pres, Electron. Sys.) 400 $81.24 $32,496.00 73,577 3.58% view
S 2008-03-04 2008-03-06 20:11:50.0 NORTHROP GRUMMAN CORP /DE/ NOC PITTS JAMES F officer (Corp VP & Pres, Electron. Sys.) 100 $80.95 $8,095.00 73,977 3.24% view
S 2008-03-04 2008-03-06 20:11:50.0 NORTHROP GRUMMAN CORP /DE/ NOC PITTS JAMES F officer (Corp VP & Pres, Electron. Sys.) 1,400 $80.93 $113,302.00 74,077 3.21% view
S 2008-03-04 2008-03-06 20:11:50.0 NORTHROP GRUMMAN CORP /DE/ NOC PITTS JAMES F officer (Corp VP & Pres, Electron. Sys.) 1,500 $80.91 $121,365.00 75,477 3.19% view
S 2008-03-04 2008-03-06 20:11:50.0 NORTHROP GRUMMAN CORP /DE/ NOC PITTS JAMES F officer (Corp VP & Pres, Electron. Sys.) 1,700 $80.90 $137,530.00 76,977 3.18% view
S 2008-03-04 2008-03-06 20:11:50.0 NORTHROP GRUMMAN CORP /DE/ NOC PITTS JAMES F officer (Corp VP & Pres, Electron. Sys.) 600 $80.89 $48,534.00 78,677 3.16% view
S 2008-03-04 2008-03-06 20:11:50.0 NORTHROP GRUMMAN CORP /DE/ NOC PITTS JAMES F officer (Corp VP & Pres, Electron. Sys.) 300 $80.88 $24,264.00 79,277 3.15% view
S 2008-03-04 2008-03-06 20:11:50.0 NORTHROP GRUMMAN CORP /DE/ NOC PITTS JAMES F officer (Corp VP & Pres, Electron. Sys.) 800 $80.87 $64,696.00 79,577 3.14% view
S 2008-03-04 2008-03-06 20:11:50.0 NORTHROP GRUMMAN CORP /DE/ NOC PITTS JAMES F officer (Corp VP & Pres, Electron. Sys.) 300 $80.86 $24,258.00 80,377 3.13% view
S 2008-03-04 2008-03-06 20:11:50.0 NORTHROP GRUMMAN CORP /DE/ NOC PITTS JAMES F officer (Corp VP & Pres, Electron. Sys.) 800 $80.85 $64,680.00 80,677 3.12% view
S 2008-03-04 2008-03-06 20:11:17.0 NORTHROP GRUMMAN CORP /DE/ NOC PITTS JAMES F officer (Corp VP & Pres, Electron. Sys.) 900 $80.84 $72,756.00 81,477 3.10% view
S 2008-03-04 2008-03-06 20:11:17.0 NORTHROP GRUMMAN CORP /DE/ NOC PITTS JAMES F officer (Corp VP & Pres, Electron. Sys.) 400 $80.83 $32,332.00 82,377 3.09% view
S 2008-03-04 2008-03-06 20:11:17.0 NORTHROP GRUMMAN CORP /DE/ NOC PITTS JAMES F officer (Corp VP & Pres, Electron. Sys.) 400 $80.82 $32,328.00 82,777 3.08% view
S 2008-03-04 2008-03-06 20:11:17.0 NORTHROP GRUMMAN CORP /DE/ NOC PITTS JAMES F officer (Corp VP & Pres, Electron. Sys.) 300 $80.81 $24,243.00 83,177 3.07% view
S 2008-03-04 2008-03-06 20:11:17.0 NORTHROP GRUMMAN CORP /DE/ NOC PITTS JAMES F officer (Corp VP & Pres, Electron. Sys.) 100 $80.79 $8,079.00 83,477 3.04% view
S 2008-03-04 2008-03-06 20:11:17.0 NORTHROP GRUMMAN CORP /DE/ NOC PITTS JAMES F officer (Corp VP & Pres, Electron. Sys.) 100 $80.78 $8,078.00 83,577 3.03% view
S 2008-03-04 2008-03-06 20:11:17.0 NORTHROP GRUMMAN CORP /DE/ NOC PITTS JAMES F officer (Corp VP & Pres, Electron. Sys.) 1,100 $80.77 $88,847.00 83,677 3.02% view
S 2008-03-04 2008-03-06 20:11:17.0 NORTHROP GRUMMAN CORP /DE/ NOC PITTS JAMES F officer (Corp VP & Pres, Electron. Sys.) 1,000 $80.76 $80,763.00 84,777 3.01% view
S 2008-03-04 2008-03-06 20:11:17.0 NORTHROP GRUMMAN CORP /DE/ NOC PITTS JAMES F officer (Corp VP & Pres, Electron. Sys.) 200 $80.76 $16,152.00 85,777 3.01% view
S 2008-03-04 2008-03-06 20:11:17.0 NORTHROP GRUMMAN CORP /DE/ NOC PITTS JAMES F officer (Corp VP & Pres, Electron. Sys.) 200 $80.73 $16,146.00 85,977 2.97% view
S 2008-03-04 2008-03-06 20:11:17.0 NORTHROP GRUMMAN CORP /DE/ NOC PITTS JAMES F officer (Corp VP & Pres, Electron. Sys.) 400 $80.72 $32,288.00 86,177 2.96% view
S 2008-03-04 2008-03-06 20:11:17.0 NORTHROP GRUMMAN CORP /DE/ NOC PITTS JAMES F officer (Corp VP & Pres, Electron. Sys.) 100 $80.71 $8,071.00 86,577 2.95% view
S 2008-03-04 2008-03-06 20:11:17.0 NORTHROP GRUMMAN CORP /DE/ NOC PITTS JAMES F officer (Corp VP & Pres, Electron. Sys.) 300 $80.70 $24,210.00 86,677 2.94% view
S 2008-03-04 2008-03-06 20:11:17.0 NORTHROP GRUMMAN CORP /DE/ NOC PITTS JAMES F officer (Corp VP & Pres, Electron. Sys.) 300 $80.68 $24,203.40 86,977 2.91% view
S 2008-03-04 2008-03-06 20:11:17.0 NORTHROP GRUMMAN CORP /DE/ NOC PITTS JAMES F officer (Corp VP & Pres, Electron. Sys.) 1,200 $80.67 $96,804.00 87,277 2.90% view
S 2008-03-04 2008-03-06 20:11:17.0 NORTHROP GRUMMAN CORP /DE/ NOC PITTS JAMES F officer (Corp VP & Pres, Electron. Sys.) 500 $80.66 $40,331.50 88,477 2.89% view
S 2008-03-04 2008-03-06 20:11:17.0 NORTHROP GRUMMAN CORP /DE/ NOC PITTS JAMES F officer (Corp VP & Pres, Electron. Sys.) 100 $80.64 $8,064.00 88,977 2.86% view
S 2008-03-04 2008-03-06 20:11:17.0 NORTHROP GRUMMAN CORP /DE/ NOC PITTS JAMES F officer (Corp VP & Pres, Electron. Sys.) 500 $80.64 $40,319.00 89,077 2.86% view
S 2008-03-04 2008-03-06 20:11:17.0 NORTHROP GRUMMAN CORP /DE/ NOC PITTS JAMES F officer (Corp VP & Pres, Electron. Sys.) 100 $80.63 $8,063.00 89,577 2.85% view
S 2008-03-04 2008-03-06 20:11:17.0 NORTHROP GRUMMAN CORP /DE/ NOC PITTS JAMES F officer (Corp VP & Pres, Electron. Sys.) 200 $80.62 $16,124.00 89,677 2.84% view
S 2008-03-04 2008-03-06 20:11:17.0 NORTHROP GRUMMAN CORP /DE/ NOC PITTS JAMES F officer (Corp VP & Pres, Electron. Sys.) 100 $80.61 $8,061.00 89,877 2.83% view
S 2008-03-04 2008-03-06 19:58:30.0 NORTHROP GRUMMAN CORP /DE/ NOC ZISKIN IAN V officer (Corp VP & Chf HR & Adm Ofcr) 100 $80.90 $8,090.00 48,917 3.18% view
S 2008-03-04 2008-03-06 19:58:30.0 NORTHROP GRUMMAN CORP /DE/ NOC ZISKIN IAN V officer (Corp VP & Chf HR & Adm Ofcr) 300 $80.86 $24,258.00 49,017 3.13% view
S 2008-03-04 2008-03-06 19:58:30.0 NORTHROP GRUMMAN CORP /DE/ NOC ZISKIN IAN V officer (Corp VP & Chf HR & Adm Ofcr) 3,013 $80.82 $243,511.00 49,317 3.08% view
S 2008-03-04 2008-03-06 19:58:30.0 NORTHROP GRUMMAN CORP /DE/ NOC ZISKIN IAN V officer (Corp VP & Chf HR & Adm Ofcr) 1,300 $80.81 $105,053.00 52,330 3.07% view
S 2008-03-04 2008-03-06 19:58:30.0 NORTHROP GRUMMAN CORP /DE/ NOC ZISKIN IAN V officer (Corp VP & Chf HR & Adm Ofcr) 1,600 $80.72 $129,152.00 53,630 2.96% view
S 2008-03-04 2008-03-06 19:57:01.0 NORTHROP GRUMMAN CORP /DE/ NOC FAZIO VIC director 1,500 $81.26 $121,890.00 1,919 3.61% view
S 2008-03-04 2008-03-06 19:57:01.0 NORTHROP GRUMMAN CORP /DE/ NOC FAZIO VIC director 3,000 $81.26 $243,780.00 3,419 3.61% view
S 2008-03-04 2008-03-06 19:47:34.0 NORTHROP GRUMMAN CORP /DE/ NOC O BRIEN ROSANNE P officer (Corp. VP, Communications) 200 $80.76 $16,152.00 19,011 3.01% view
S 2008-03-04 2008-03-06 19:47:34.0 NORTHROP GRUMMAN CORP /DE/ NOC O BRIEN ROSANNE P officer (Corp. VP, Communications) 703 $80.74 $56,760.20 19,211 2.98% view
S 2008-03-04 2008-03-06 19:47:34.0 NORTHROP GRUMMAN CORP /DE/ NOC O BRIEN ROSANNE P officer (Corp. VP, Communications) 100 $80.64 $8,064.00 19,914 2.86% view
S 2008-03-04 2008-03-06 19:47:34.0 NORTHROP GRUMMAN CORP /DE/ NOC O BRIEN ROSANNE P officer (Corp. VP, Communications) 600 $80.62 $48,372.00 20,014 2.84% view
S 2008-03-04 2008-03-06 19:47:34.0 NORTHROP GRUMMAN CORP /DE/ NOC O BRIEN ROSANNE P officer (Corp. VP, Communications) 100 $80.61 $8,061.50 20,614 2.83% view
S 2008-03-04 2008-03-06 19:47:34.0 NORTHROP GRUMMAN CORP /DE/ NOC O BRIEN ROSANNE P officer (Corp. VP, Communications) 200 $80.61 $16,122.00 20,714 2.83% view
S 2008-03-04 2008-03-06 19:47:34.0 NORTHROP GRUMMAN CORP /DE/ NOC O BRIEN ROSANNE P officer (Corp. VP, Communications) 600 $80.58 $48,348.00 20,914 2.79% view
S 2008-03-04 2008-03-06 19:47:34.0 NORTHROP GRUMMAN CORP /DE/ NOC O BRIEN ROSANNE P officer (Corp. VP, Communications) 500 $80.57 $40,285.00 21,514 2.78% view
S 2008-03-04 2008-03-06 19:47:34.0 NORTHROP GRUMMAN CORP /DE/ NOC O BRIEN ROSANNE P officer (Corp. VP, Communications) 200 $80.56 $16,111.00 22,014 2.76% view
S 2008-03-04 2008-03-06 19:47:34.0 NORTHROP GRUMMAN CORP /DE/ NOC O BRIEN ROSANNE P officer (Corp. VP, Communications) 200 $80.55 $16,110.00 22,214 2.76% view
S 2008-03-04 2008-03-06 19:47:34.0 NORTHROP GRUMMAN CORP /DE/ NOC O BRIEN ROSANNE P officer (Corp. VP, Communications) 500 $80.54 $40,270.00 22,414 2.74% view
S 2008-03-04 2008-03-06 19:47:34.0 NORTHROP GRUMMAN CORP /DE/ NOC O BRIEN ROSANNE P officer (Corp. VP, Communications) 1,000 $80.53 $80,530.00 22,914 2.73% view
S 2008-03-04 2008-03-06 19:47:34.0 NORTHROP GRUMMAN CORP /DE/ NOC O BRIEN ROSANNE P officer (Corp. VP, Communications) 600 $80.52 $48,312.00 23,914 2.72% view
S 2008-03-04 2008-03-06 19:47:34.0 NORTHROP GRUMMAN CORP /DE/ NOC O BRIEN ROSANNE P officer (Corp. VP, Communications) 1,100 $80.51 $88,561.00 24,514 2.71% view
S 2008-03-04 2008-03-06 19:47:34.0 NORTHROP GRUMMAN CORP /DE/ NOC O BRIEN ROSANNE P officer (Corp. VP, Communications) 1,600 $80.50 $128,800.00 25,614 2.70% view
S 2008-03-04 2008-03-06 19:47:34.0 NORTHROP GRUMMAN CORP /DE/ NOC O BRIEN ROSANNE P officer (Corp. VP, Communications) 100 $80.49 $8,048.50 27,214 2.68% view
S 2008-03-04 2008-03-06 19:47:34.0 NORTHROP GRUMMAN CORP /DE/ NOC O BRIEN ROSANNE P officer (Corp. VP, Communications) 600 $80.48 $48,288.00 27,314 2.67% view
S 2008-03-04 2008-03-06 19:47:34.0 NORTHROP GRUMMAN CORP /DE/ NOC O BRIEN ROSANNE P officer (Corp. VP, Communications) 600 $80.47 $48,282.00 27,914 2.66% view
S 2008-03-04 2008-03-06 19:47:34.0 NORTHROP GRUMMAN CORP /DE/ NOC O BRIEN ROSANNE P officer (Corp. VP, Communications) 100 $80.46 $8,045.50 28,514 2.64% view
S 2008-03-04 2008-03-06 19:46:55.0 NORTHROP GRUMMAN CORP /DE/ NOC O BRIEN ROSANNE P officer (Corp. VP, Communications) 800 $80.44 $64,356.00 28,614 2.63% view
S 2008-03-04 2008-03-06 19:46:55.0 NORTHROP GRUMMAN CORP /DE/ NOC O BRIEN ROSANNE P officer (Corp. VP, Communications) 100 $80.44 $8,044.00 29,414 2.62% view
S 2008-03-04 2008-03-06 19:46:55.0 NORTHROP GRUMMAN CORP /DE/ NOC O BRIEN ROSANNE P officer (Corp. VP, Communications) 3,000 $80.43 $241,290.00 29,514 2.61% view
S 2008-03-04 2008-03-06 19:46:55.0 NORTHROP GRUMMAN CORP /DE/ NOC O BRIEN ROSANNE P officer (Corp. VP, Communications) 2,200 $80.42 $176,924.00 32,514 2.60% view
S 2008-03-04 2008-03-06 19:46:55.0 NORTHROP GRUMMAN CORP /DE/ NOC O BRIEN ROSANNE P officer (Corp. VP, Communications) 200 $80.42 $16,083.00 34,714 2.59% view
S 2008-03-04 2008-03-06 19:46:55.0 NORTHROP GRUMMAN CORP /DE/ NOC O BRIEN ROSANNE P officer (Corp. VP, Communications) 200 $80.41 $16,082.00 34,914 2.59% view
S 2008-03-04 2008-03-06 19:46:55.0 NORTHROP GRUMMAN CORP /DE/ NOC O BRIEN ROSANNE P officer (Corp. VP, Communications) 400 $80.40 $32,160.00 35,114 2.57% view
S 2008-03-04 2008-03-06 19:46:55.0 NORTHROP GRUMMAN CORP /DE/ NOC O BRIEN ROSANNE P officer (Corp. VP, Communications) 300 $80.39 $24,115.50 35,514 2.56% view
S 2008-03-04 2008-03-06 19:46:55.0 NORTHROP GRUMMAN CORP /DE/ NOC O BRIEN ROSANNE P officer (Corp. VP, Communications) 400 $80.36 $32,146.00 35,814 2.53% view
S 2008-03-04 2008-03-06 19:46:55.0 NORTHROP GRUMMAN CORP /DE/ NOC O BRIEN ROSANNE P officer (Corp. VP, Communications) 200 $80.36 $16,072.00 36,214 2.53% view
S 2008-03-04 2008-03-06 19:46:55.0 NORTHROP GRUMMAN CORP /DE/ NOC O BRIEN ROSANNE P officer (Corp. VP, Communications) 4,300 $80.33 $345,440.00 36,414 2.50% view
S 2008-03-04 2008-03-06 19:46:55.0 NORTHROP GRUMMAN CORP /DE/ NOC O BRIEN ROSANNE P officer (Corp. VP, Communications) 3,000 $80.33 $240,990.00 40,714 2.49% view
S 2008-03-04 2008-03-06 19:46:55.0 NORTHROP GRUMMAN CORP /DE/ NOC O BRIEN ROSANNE P officer (Corp. VP, Communications) 100 $80.23 $8,023.00 43,714 2.37% view
S 2008-03-04 2008-03-06 19:46:55.0 NORTHROP GRUMMAN CORP /DE/ NOC O BRIEN ROSANNE P officer (Corp. VP, Communications) 100 $80.22 $8,021.80 43,814 2.35% view
S 2008-03-04 2008-03-06 19:46:55.0 NORTHROP GRUMMAN CORP /DE/ NOC O BRIEN ROSANNE P officer (Corp. VP, Communications) 300 $80.21 $24,063.00 43,914 2.34% view
S 2008-03-04 2008-03-06 19:46:55.0 NORTHROP GRUMMAN CORP /DE/ NOC O BRIEN ROSANNE P officer (Corp. VP, Communications) 700 $80.20 $56,140.00 44,214 2.33% view
S 2008-03-04 2008-03-06 19:46:55.0 NORTHROP GRUMMAN CORP /DE/ NOC O BRIEN ROSANNE P officer (Corp. VP, Communications) 100 $80.19 $8,019.50 44,914 2.33% view
S 2008-03-04 2008-03-06 19:46:55.0 NORTHROP GRUMMAN CORP /DE/ NOC O BRIEN ROSANNE P officer (Corp. VP, Communications) 2,700 $80.19 $216,513.00 45,014 2.32% view
S 2008-03-04 2008-03-06 19:46:55.0 NORTHROP GRUMMAN CORP /DE/ NOC O BRIEN ROSANNE P officer (Corp. VP, Communications) 900 $80.18 $72,162.00 47,714 2.31% view
S 2008-03-04 2008-03-06 19:46:55.0 NORTHROP GRUMMAN CORP /DE/ NOC O BRIEN ROSANNE P officer (Corp. VP, Communications) 2,300 $80.17 $184,391.00 48,614 2.30% view
S 2008-03-04 2008-03-06 19:46:55.0 NORTHROP GRUMMAN CORP /DE/ NOC O BRIEN ROSANNE P officer (Corp. VP, Communications) 100 $80.17 $8,016.50 50,914 2.29% view
S 2008-03-04 2008-03-06 19:46:55.0 NORTHROP GRUMMAN CORP /DE/ NOC O BRIEN ROSANNE P officer (Corp. VP, Communications) 400 $80.16 $32,064.00 51,014 2.28% view
S 2008-03-04 2008-03-06 19:46:55.0 NORTHROP GRUMMAN CORP /DE/ NOC O BRIEN ROSANNE P officer (Corp. VP, Communications) 700 $80.15 $56,105.00 51,414 2.27% view
S 2008-03-04 2008-03-06 19:46:55.0 NORTHROP GRUMMAN CORP /DE/ NOC O BRIEN ROSANNE P officer (Corp. VP, Communications) 300 $80.14 $24,042.00 52,114 2.26% view
S 2008-03-04 2008-03-06 19:46:55.0 NORTHROP GRUMMAN CORP /DE/ NOC O BRIEN ROSANNE P officer (Corp. VP, Communications) 400 $80.13 $32,052.00 52,414 2.25% view
S 2008-03-04 2008-03-06 19:46:55.0 NORTHROP GRUMMAN CORP /DE/ NOC O BRIEN ROSANNE P officer (Corp. VP, Communications) 100 $80.12 $8,012.00 52,814 2.23% view
S 2008-03-04 2008-03-06 19:44:25.0 NORTHROP GRUMMAN CORP /DE/ NOC MILLS LINDA A officer (Corp. VP & Pres. Info. Tech.) 100 $81.26 $8,126.00 29,137 3.61% view
S 2008-03-04 2008-03-06 19:44:25.0 NORTHROP GRUMMAN CORP /DE/ NOC MILLS LINDA A officer (Corp. VP & Pres. Info. Tech.) 100 $81.25 $8,125.00 29,237 3.59% view
S 2008-03-04 2008-03-06 19:44:25.0 NORTHROP GRUMMAN CORP /DE/ NOC MILLS LINDA A officer (Corp. VP & Pres. Info. Tech.) 100 $81.19 $8,119.00 29,337 3.52% view
S 2008-03-04 2008-03-06 19:43:52.0 NORTHROP GRUMMAN CORP /DE/ NOC MILLS LINDA A officer (Corp. VP & Pres. Info. Tech.) 100 $81.12 $8,112.00 29,437 3.44% view
S 2008-03-04 2008-03-06 19:43:52.0 NORTHROP GRUMMAN CORP /DE/ NOC MILLS LINDA A officer (Corp. VP & Pres. Info. Tech.) 100 $81.05 $8,105.00 29,537 3.36% view
S 2008-03-04 2008-03-06 19:43:52.0 NORTHROP GRUMMAN CORP /DE/ NOC MILLS LINDA A officer (Corp. VP & Pres. Info. Tech.) 300 $80.98 $24,294.00 29,637 3.27% view
S 2008-03-04 2008-03-06 19:43:52.0 NORTHROP GRUMMAN CORP /DE/ NOC MILLS LINDA A officer (Corp. VP & Pres. Info. Tech.) 100 $80.97 $8,097.00 29,937 3.26% view
S 2008-03-04 2008-03-06 19:43:52.0 NORTHROP GRUMMAN CORP /DE/ NOC MILLS LINDA A officer (Corp. VP & Pres. Info. Tech.) 300 $80.96 $24,288.00 30,037 3.25% view
S 2008-03-04 2008-03-06 19:43:52.0 NORTHROP GRUMMAN CORP /DE/ NOC MILLS LINDA A officer (Corp. VP & Pres. Info. Tech.) 200 $80.95 $16,190.00 30,337 3.24% view
S 2008-03-04 2008-03-06 19:43:52.0 NORTHROP GRUMMAN CORP /DE/ NOC MILLS LINDA A officer (Corp. VP & Pres. Info. Tech.) 200 $80.93 $16,186.00 30,537 3.21% view
S 2008-03-04 2008-03-06 19:43:52.0 NORTHROP GRUMMAN CORP /DE/ NOC MILLS LINDA A officer (Corp. VP & Pres. Info. Tech.) 300 $80.92 $24,276.00 30,737 3.20% view
S 2008-03-04 2008-03-06 19:43:52.0 NORTHROP GRUMMAN CORP /DE/ NOC MILLS LINDA A officer (Corp. VP & Pres. Info. Tech.) 300 $80.90 $24,270.00 31,037 3.18% view
S 2008-03-04 2008-03-06 19:43:52.0 NORTHROP GRUMMAN CORP /DE/ NOC MILLS LINDA A officer (Corp. VP & Pres. Info. Tech.) 200 $80.87 $16,174.00 31,337 3.14% view
S 2008-03-04 2008-03-06 19:43:52.0 NORTHROP GRUMMAN CORP /DE/ NOC MILLS LINDA A officer (Corp. VP & Pres. Info. Tech.) 200 $80.85 $16,170.00 31,537 3.12% view
S 2008-03-04 2008-03-06 19:43:52.0 NORTHROP GRUMMAN CORP /DE/ NOC MILLS LINDA A officer (Corp. VP & Pres. Info. Tech.) 200 $80.84 $16,168.00 31,737 3.10% view
S 2008-03-04 2008-03-06 19:43:52.0 NORTHROP GRUMMAN CORP /DE/ NOC MILLS LINDA A officer (Corp. VP & Pres. Info. Tech.) 200 $80.83 $16,166.00 31,937 3.09% view
S 2008-03-04 2008-03-06 19:43:52.0 NORTHROP GRUMMAN CORP /DE/ NOC MILLS LINDA A officer (Corp. VP & Pres. Info. Tech.) 100 $80.80 $8,080.00 32,137 3.06% view
S 2008-03-04 2008-03-06 19:43:52.0 NORTHROP GRUMMAN CORP /DE/ NOC MILLS LINDA A officer (Corp. VP & Pres. Info. Tech.) 100 $80.77 $8,077.00 32,237 3.02% view
S 2008-03-04 2008-03-06 19:43:52.0 NORTHROP GRUMMAN CORP /DE/ NOC MILLS LINDA A officer (Corp. VP & Pres. Info. Tech.) 100 $80.68 $8,068.00 32,337 2.91% view
S 2008-03-04 2008-03-06 19:43:52.0 NORTHROP GRUMMAN CORP /DE/ NOC MILLS LINDA A officer (Corp. VP & Pres. Info. Tech.) 200 $80.66 $16,132.00 32,437 2.89% view
S 2008-03-04 2008-03-06 19:43:52.0 NORTHROP GRUMMAN CORP /DE/ NOC MILLS LINDA A officer (Corp. VP & Pres. Info. Tech.) 100 $80.65 $8,065.00 32,637 2.88% view
S 2008-03-04 2008-03-06 19:43:52.0 NORTHROP GRUMMAN CORP /DE/ NOC MILLS LINDA A officer (Corp. VP & Pres. Info. Tech.) 100 $80.62 $8,062.00 32,737 2.84% view
S 2008-03-04 2008-03-06 19:43:52.0 NORTHROP GRUMMAN CORP /DE/ NOC MILLS LINDA A officer (Corp. VP & Pres. Info. Tech.) 100 $80.57 $8,057.00 32,837 2.78% view
S 2008-03-04 2008-03-06 19:43:52.0 NORTHROP GRUMMAN CORP /DE/ NOC MILLS LINDA A officer (Corp. VP & Pres. Info. Tech.) 100 $80.52 $8,052.00 32,937 2.72% view
S 2008-03-04 2008-03-06 19:43:29.0 NORTHROP GRUMMAN CORP /DE/ NOC MILLS LINDA A officer (Corp. VP & Pres. Info. Tech.) 200 $80.51 $16,102.00 33,037 2.71% view
S 2008-03-04 2008-03-06 19:43:29.0 NORTHROP GRUMMAN CORP /DE/ NOC MILLS LINDA A officer (Corp. VP & Pres. Info. Tech.) 200 $80.46 $16,092.00 33,237 2.65% view
S 2008-03-04 2008-03-06 19:43:29.0 NORTHROP GRUMMAN CORP /DE/ NOC MILLS LINDA A officer (Corp. VP & Pres. Info. Tech.) 100 $80.44 $8,044.00 33,437 2.62% view
S 2008-03-04 2008-03-06 19:43:29.0 NORTHROP GRUMMAN CORP /DE/ NOC MILLS LINDA A officer (Corp. VP & Pres. Info. Tech.) 100 $80.42 $8,042.00 33,537 2.60% view
S 2008-03-04 2008-03-06 19:43:29.0 NORTHROP GRUMMAN CORP /DE/ NOC MILLS LINDA A officer (Corp. VP & Pres. Info. Tech.) 100 $80.40 $8,040.00 33,637 2.57% view
S 2008-03-04 2008-03-06 19:43:29.0 NORTHROP GRUMMAN CORP /DE/ NOC MILLS LINDA A officer (Corp. VP & Pres. Info. Tech.) 200 $80.37 $16,074.00 33,737 2.54% view
S 2008-03-04 2008-03-06 19:43:29.0 NORTHROP GRUMMAN CORP /DE/ NOC MILLS LINDA A officer (Corp. VP & Pres. Info. Tech.) 200 $80.36 $16,072.00 33,937 2.53% view
S 2008-03-04 2008-03-06 19:43:29.0 NORTHROP GRUMMAN CORP /DE/ NOC MILLS LINDA A officer (Corp. VP & Pres. Info. Tech.) 100 $80.32 $8,032.00 34,137 2.48% view
S 2008-03-04 2008-03-06 19:43:29.0 NORTHROP GRUMMAN CORP /DE/ NOC MILLS LINDA A officer (Corp. VP & Pres. Info. Tech.) 200 $80.31 $16,062.00 34,237 2.47% view
S 2008-03-04 2008-03-06 19:43:29.0 NORTHROP GRUMMAN CORP /DE/ NOC MILLS LINDA A officer (Corp. VP & Pres. Info. Tech.) 300 $80.28 $24,084.00 34,437 2.43% view
S 2008-03-04 2008-03-06 19:43:29.0 NORTHROP GRUMMAN CORP /DE/ NOC MILLS LINDA A officer (Corp. VP & Pres. Info. Tech.) 700 $80.25 $56,175.00 34,737 2.39% view
S 2008-03-04 2008-03-06 19:43:29.0 NORTHROP GRUMMAN CORP /DE/ NOC MILLS LINDA A officer (Corp. VP & Pres. Info. Tech.) 100 $80.23 $8,023.00 35,437 2.37% view
S 2008-03-04 2008-03-06 19:43:29.0 NORTHROP GRUMMAN CORP /DE/ NOC MILLS LINDA A officer (Corp. VP & Pres. Info. Tech.) 100 $80.22 $8,022.00 35,537 2.36% view
S 2008-03-04 2008-03-06 19:43:29.0 NORTHROP GRUMMAN CORP /DE/ NOC MILLS LINDA A officer (Corp. VP & Pres. Info. Tech.) 400 $80.21 $32,084.00 35,637 2.34% view
S 2008-03-04 2008-03-06 19:43:29.0 NORTHROP GRUMMAN CORP /DE/ NOC MILLS LINDA A officer (Corp. VP & Pres. Info. Tech.) 514 $80.20 $41,222.80 36,037 2.33% view
S 2008-03-04 2008-03-06 19:43:29.0 NORTHROP GRUMMAN CORP /DE/ NOC MILLS LINDA A officer (Corp. VP & Pres. Info. Tech.) 200 $80.19 $16,038.00 36,551 2.32% view
S 2008-03-04 2008-03-06 19:43:29.0 NORTHROP GRUMMAN CORP /DE/ NOC MILLS LINDA A officer (Corp. VP & Pres. Info. Tech.) 100 $80.18 $8,018.00 36,751 2.31% view
S 2008-03-04 2008-03-06 19:43:29.0 NORTHROP GRUMMAN CORP /DE/ NOC MILLS LINDA A officer (Corp. VP & Pres. Info. Tech.) 200 $80.17 $16,034.00 36,851 2.30% view
S 2008-03-04 2008-03-06 19:43:29.0 NORTHROP GRUMMAN CORP /DE/ NOC MILLS LINDA A officer (Corp. VP & Pres. Info. Tech.) 200 $80.16 $16,032.00 37,051 2.28% view
S 2008-03-04 2008-03-06 19:43:29.0 NORTHROP GRUMMAN CORP /DE/ NOC MILLS LINDA A officer (Corp. VP & Pres. Info. Tech.) 300 $80.14 $24,042.00 37,251 2.26% view
S 2008-03-04 2008-03-06 19:43:29.0 NORTHROP GRUMMAN CORP /DE/ NOC MILLS LINDA A officer (Corp. VP & Pres. Info. Tech.) 200 $80.12 $16,024.00 37,551 2.23% view
S 2008-03-04 2008-03-06 19:42:50.0 NORTHROP GRUMMAN CORP /DE/ NOC MILLS LINDA A officer (Corp. VP & Pres. Info. Tech.) 100 $80.11 $8,011.00 37,751 2.22% view
S 2008-03-04 2008-03-06 19:42:50.0 NORTHROP GRUMMAN CORP /DE/ NOC MILLS LINDA A officer (Corp. VP & Pres. Info. Tech.) 200 $80.10 $16,020.00 37,851 2.21% view
S 2008-03-04 2008-03-06 19:42:50.0 NORTHROP GRUMMAN CORP /DE/ NOC MILLS LINDA A officer (Corp. VP & Pres. Info. Tech.) 200 $80.09 $16,018.00 38,051 2.20% view
S 2008-03-04 2008-03-06 19:42:50.0 NORTHROP GRUMMAN CORP /DE/ NOC MILLS LINDA A officer (Corp. VP & Pres. Info. Tech.) 200 $80.06 $16,012.00 38,251 2.16% view
S 2008-03-04 2008-03-06 19:42:50.0 NORTHROP GRUMMAN CORP /DE/ NOC MILLS LINDA A officer (Corp. VP & Pres. Info. Tech.) 100 $80.05 $8,005.00 38,451 2.15% view
S 2008-03-04 2008-03-06 19:42:50.0 NORTHROP GRUMMAN CORP /DE/ NOC MILLS LINDA A officer (Corp. VP & Pres. Info. Tech.) 186 $80.04 $14,887.40 38,551 2.14% view
S 2008-03-04 2008-03-06 19:42:50.0 NORTHROP GRUMMAN CORP /DE/ NOC MILLS LINDA A officer (Corp. VP & Pres. Info. Tech.) 100 $80.03 $8,003.00 38,737 2.12% view
S 2008-03-04 2008-03-06 19:42:50.0 NORTHROP GRUMMAN CORP /DE/ NOC MILLS LINDA A officer (Corp. VP & Pres. Info. Tech.) 100 $80.01 $8,001.00 38,837 2.10% view
S 2008-03-04 2008-03-06 19:42:50.0 NORTHROP GRUMMAN CORP /DE/ NOC MILLS LINDA A officer (Corp. VP & Pres. Info. Tech.) 100 $79.96 $7,996.00 38,937 2.04% view
S 2008-03-04 2008-03-06 19:42:50.0 NORTHROP GRUMMAN CORP /DE/ NOC MILLS LINDA A officer (Corp. VP & Pres. Info. Tech.) 100 $79.95 $7,995.00 39,037 2.03% view
S 2008-03-04 2008-03-06 19:42:50.0 NORTHROP GRUMMAN CORP /DE/ NOC MILLS LINDA A officer (Corp. VP & Pres. Info. Tech.) 100 $79.93 $7,993.00 39,137 2.00% view
S 2008-03-04 2008-03-06 19:42:50.0 NORTHROP GRUMMAN CORP /DE/ NOC MILLS LINDA A officer (Corp. VP & Pres. Info. Tech.) 100 $79.92 $7,992.00 39,237 1.99% view
S 2008-03-04 2008-03-06 19:42:50.0 NORTHROP GRUMMAN CORP /DE/ NOC MILLS LINDA A officer (Corp. VP & Pres. Info. Tech.) 100 $79.89 $7,989.00 39,337 1.95% view
S 2008-03-04 2008-03-06 19:42:50.0 NORTHROP GRUMMAN CORP /DE/ NOC MILLS LINDA A officer (Corp. VP & Pres. Info. Tech.) 100 $79.88 $7,988.00 39,437 1.94% view
S 2008-03-04 2008-03-06 19:42:50.0 NORTHROP GRUMMAN CORP /DE/ NOC MILLS LINDA A officer (Corp. VP & Pres. Info. Tech.) 100 $79.87 $7,987.00 39,537 1.93% view
S 2008-03-04 2008-03-06 19:42:50.0 NORTHROP GRUMMAN CORP /DE/ NOC MILLS LINDA A officer (Corp. VP & Pres. Info. Tech.) 100 $79.84 $7,984.00 39,637 1.89% view
S 2008-03-04 2008-03-06 19:42:50.0 NORTHROP GRUMMAN CORP /DE/ NOC MILLS LINDA A officer (Corp. VP & Pres. Info. Tech.) 300 $79.83 $23,949.00 39,737 1.88% view
S 2008-03-04 2008-03-06 19:42:50.0 NORTHROP GRUMMAN CORP /DE/ NOC MILLS LINDA A officer (Corp. VP & Pres. Info. Tech.) 100 $79.82 $7,982.00 40,037 1.87% view
S 2008-03-04 2008-03-06 19:42:50.0 NORTHROP GRUMMAN CORP /DE/ NOC MILLS LINDA A officer (Corp. VP & Pres. Info. Tech.) 300 $79.81 $23,943.00 40,137 1.85% view
S 2008-03-04 2008-03-06 19:42:50.0 NORTHROP GRUMMAN CORP /DE/ NOC MILLS LINDA A officer (Corp. VP & Pres. Info. Tech.) 100 $79.79 $7,979.00 40,437 1.83% view
S 2008-03-04 2008-03-06 19:42:50.0 NORTHROP GRUMMAN CORP /DE/ NOC MILLS LINDA A officer (Corp. VP & Pres. Info. Tech.) 200 $79.78 $15,956.00 40,537 1.82% view
S 2008-03-04 2008-03-06 19:42:28.0 NORTHROP GRUMMAN CORP /DE/ NOC MILLS LINDA A officer (Corp. VP & Pres. Info. Tech.) 100 $79.76 $7,976.00 40,737 1.79% view
S 2008-03-04 2008-03-06 19:42:28.0 NORTHROP GRUMMAN CORP /DE/ NOC MILLS LINDA A officer (Corp. VP & Pres. Info. Tech.) 100 $79.75 $7,975.00 40,837 1.78% view
S 2008-03-04 2008-03-06 19:42:28.0 NORTHROP GRUMMAN CORP /DE/ NOC MILLS LINDA A officer (Corp. VP & Pres. Info. Tech.) 400 $79.73 $31,892.00 40,937 1.76% view
S 2008-03-04 2008-03-06 19:42:28.0 NORTHROP GRUMMAN CORP /DE/ NOC MILLS LINDA A officer (Corp. VP & Pres. Info. Tech.) 100 $79.68 $7,968.00 41,337 1.69% view
S 2008-03-04 2008-03-06 19:42:28.0 NORTHROP GRUMMAN CORP /DE/ NOC MILLS LINDA A officer (Corp. VP & Pres. Info. Tech.) 200 $79.67 $15,934.00 41,437 1.68% view
S 2008-03-04 2008-03-06 19:42:28.0 NORTHROP GRUMMAN CORP /DE/ NOC MILLS LINDA A officer (Corp. VP & Pres. Info. Tech.) 200 $79.65 $15,930.00 41,637 1.66% view
S 2008-03-04 2008-03-06 19:42:28.0 NORTHROP GRUMMAN CORP /DE/ NOC MILLS LINDA A officer (Corp. VP & Pres. Info. Tech.) 100 $79.64 $7,964.00 41,837 1.64% view
S 2008-03-04 2008-03-06 19:42:28.0 NORTHROP GRUMMAN CORP /DE/ NOC MILLS LINDA A officer (Corp. VP & Pres. Info. Tech.) 200 $79.62 $15,924.00 41,937 1.62% view
S 2008-03-04 2008-03-06 19:42:28.0 NORTHROP GRUMMAN CORP /DE/ NOC MILLS LINDA A officer (Corp. VP & Pres. Info. Tech.) 200 $79.61 $15,922.00 42,137 1.61% view
S 2008-03-04 2008-03-06 19:42:28.0 NORTHROP GRUMMAN CORP /DE/ NOC MILLS LINDA A officer (Corp. VP & Pres. Info. Tech.) 100 $79.60 $7,960.00 42,337 1.60% view
S 2008-03-04 2008-03-06 19:42:28.0 NORTHROP GRUMMAN CORP /DE/ NOC MILLS LINDA A officer (Corp. VP & Pres. Info. Tech.) 200 $79.59 $15,918.00 42,437 1.58% view
S 2008-03-04 2008-03-06 19:42:28.0 NORTHROP GRUMMAN CORP /DE/ NOC MILLS LINDA A officer (Corp. VP & Pres. Info. Tech.) 100 $79.58 $7,958.00 42,637 1.57% view
S 2008-03-04 2008-03-06 19:42:28.0 NORTHROP GRUMMAN CORP /DE/ NOC MILLS LINDA A officer (Corp. VP & Pres. Info. Tech.) 400 $79.56 $31,824.00 42,737 1.55% view
S 2008-03-04 2008-03-06 19:42:28.0 NORTHROP GRUMMAN CORP /DE/ NOC MILLS LINDA A officer (Corp. VP & Pres. Info. Tech.) 200 $79.55 $15,910.00 43,137 1.53% view
S 2008-03-04 2008-03-06 19:42:28.0 NORTHROP GRUMMAN CORP /DE/ NOC MILLS LINDA A officer (Corp. VP & Pres. Info. Tech.) 300 $79.54 $23,862.00 43,337 1.52% view
S 2008-03-04 2008-03-06 19:42:28.0 NORTHROP GRUMMAN CORP /DE/ NOC MILLS LINDA A officer (Corp. VP & Pres. Info. Tech.) 200 $79.53 $15,906.00 43,637 1.51% view
S 2008-03-04 2008-03-06 19:42:28.0 NORTHROP GRUMMAN CORP /DE/ NOC MILLS LINDA A officer (Corp. VP & Pres. Info. Tech.) 100 $79.50 $7,950.00 43,837 1.47% view
S 2008-03-04 2008-03-06 19:42:28.0 NORTHROP GRUMMAN CORP /DE/ NOC MILLS LINDA A officer (Corp. VP & Pres. Info. Tech.) 100 $79.49 $7,949.00 43,937 1.46% view
S 2008-03-04 2008-03-06 19:42:28.0 NORTHROP GRUMMAN CORP /DE/ NOC MILLS LINDA A officer (Corp. VP & Pres. Info. Tech.) 100 $79.44 $7,944.00 44,037 1.40% view
S 2006-05-01 2006-05-02 19:06:33.0 NORTHROP GRUMMAN CORP /DE/ NOC FAZIO VIC director 900 $67.46 $60,714.00 3,419 3.96% view
S 2006-05-01 2006-05-02 19:06:33.0 NORTHROP GRUMMAN CORP /DE/ NOC FAZIO VIC director 400 $67.45 $26,980.00 4,319 3.94% view
S 2006-05-01 2006-05-02 19:06:33.0 NORTHROP GRUMMAN CORP /DE/ NOC FAZIO VIC director 600 $67.44 $40,464.00 4,719 3.93% view
S 2006-05-01 2006-05-02 19:06:33.0 NORTHROP GRUMMAN CORP /DE/ NOC FAZIO VIC director 1,100 $67.43 $74,173.00 5,319 3.92% view
S 2006-05-01 2006-05-02 19:06:33.0 NORTHROP GRUMMAN CORP /DE/ NOC FAZIO VIC director 600 $67.42 $40,452.00 6,419 3.90% view
S 2006-05-01 2006-05-02 19:06:33.0 NORTHROP GRUMMAN CORP /DE/ NOC FAZIO VIC director 200 $67.41 $13,482.00 7,019 3.89% view
S 2006-05-01 2006-05-02 19:06:33.0 NORTHROP GRUMMAN CORP /DE/ NOC FAZIO VIC director 2,300 $67.40 $155,020.00 7,219 3.87% view
S 2006-05-01 2006-05-02 19:06:33.0 NORTHROP GRUMMAN CORP /DE/ NOC FAZIO VIC director 1,700 $67.39 $114,563.00 9,519 3.86% view
S 2006-05-01 2006-05-02 19:06:33.0 NORTHROP GRUMMAN CORP /DE/ NOC FAZIO VIC director 1,200 $67.38 $80,856.00 11,219 3.84% view
S 2006-02-21 2006-03-08 20:32:20.0 NORTHROP GRUMMAN CORP /DE/ NOC LIVANOS ALEXANDER C officer (Corp. VP & Pres. Space Tech.) 700 $65.35 $45,745.00 47,000 -6.23% view
S 2006-02-21 2006-03-08 20:32:20.0 NORTHROP GRUMMAN CORP /DE/ NOC LIVANOS ALEXANDER C officer (Corp. VP & Pres. Space Tech.) 600 $65.34 $39,204.00 47,700 -6.24% view
S 2006-02-21 2006-03-08 20:32:20.0 NORTHROP GRUMMAN CORP /DE/ NOC LIVANOS ALEXANDER C officer (Corp. VP & Pres. Space Tech.) 800 $65.33 $52,264.00 48,300 -6.26% view
S 2006-02-21 2006-03-08 20:32:20.0 NORTHROP GRUMMAN CORP /DE/ NOC LIVANOS ALEXANDER C officer (Corp. VP & Pres. Space Tech.) 100 $65.32 $6,532.00 49,100 -6.28% view
S 2006-02-21 2006-03-08 20:32:20.0 NORTHROP GRUMMAN CORP /DE/ NOC LIVANOS ALEXANDER C officer (Corp. VP & Pres. Space Tech.) 120 $65.31 $7,837.20 49,200 -6.29% view
S 2006-02-21 2006-03-08 20:32:20.0 NORTHROP GRUMMAN CORP /DE/ NOC LIVANOS ALEXANDER C officer (Corp. VP & Pres. Space Tech.) 100 $65.30 $6,530.00 49,320 -6.31% view
S 2006-02-21 2006-03-08 20:32:20.0 NORTHROP GRUMMAN CORP /DE/ NOC LIVANOS ALEXANDER C officer (Corp. VP & Pres. Space Tech.) 400 $65.28 $26,112.00 49,420 -6.34% view
S 2006-02-21 2006-03-08 20:32:20.0 NORTHROP GRUMMAN CORP /DE/ NOC LIVANOS ALEXANDER C officer (Corp. VP & Pres. Space Tech.) 100 $65.27 $6,527.00 49,820 -6.36% view
S 2006-02-21 2006-03-08 20:32:20.0 NORTHROP GRUMMAN CORP /DE/ NOC LIVANOS ALEXANDER C officer (Corp. VP & Pres. Space Tech.) 200 $65.26 $13,052.00 49,920 -6.37% view
S 2006-02-21 2006-03-08 20:32:20.0 NORTHROP GRUMMAN CORP /DE/ NOC LIVANOS ALEXANDER C officer (Corp. VP & Pres. Space Tech.) 3,500 $65.23 $228,305.00 50,120 -6.42% view
S 2006-02-21 2006-03-08 20:32:20.0 NORTHROP GRUMMAN CORP /DE/ NOC LIVANOS ALEXANDER C officer (Corp. VP & Pres. Space Tech.) 200 $65.22 $13,044.00 53,620 -6.44% view
S 2006-02-21 2006-03-08 20:32:20.0 NORTHROP GRUMMAN CORP /DE/ NOC LIVANOS ALEXANDER C officer (Corp. VP & Pres. Space Tech.) 2,200 $65.21 $143,462.00 53,820 -6.46% view
S 2006-02-21 2006-03-08 20:32:20.0 NORTHROP GRUMMAN CORP /DE/ NOC LIVANOS ALEXANDER C officer (Corp. VP & Pres. Space Tech.) 2,800 $65.18 $182,504.00 56,020 -6.51% view
S 2006-02-28 2006-03-01 19:01:07.0 NORTHROP GRUMMAN CORP /DE/ NOC SANFORD JAMES L officer (Corp. VP & Treasurer) 29,900 $65.13 $1,947,390.00 40,104 -4.31% view
S 2006-02-27 2006-02-28 16:35:56.0 NORTHROP GRUMMAN CORP /DE/ NOC AGEE JERRY B officer (Corp VP & Pres Mission Systems) 1,600 $65.75 $105,200.00 47,178 -4.21% view
S 2006-02-22 2006-02-23 19:16:50.0 NORTHROP GRUMMAN CORP /DE/ NOC HELM ROBERT W officer (Corp.VP, Government Relations) 6,558 $66.46 $435,845.00 64,393 -5.06% view
S 2006-02-22 2006-02-23 19:16:50.0 NORTHROP GRUMMAN CORP /DE/ NOC HELM ROBERT W officer (Corp.VP, Government Relations) 9,100 $66.43 $604,513.00 70,951 -5.10% view
S 2006-02-22 2006-02-23 19:16:50.0 NORTHROP GRUMMAN CORP /DE/ NOC HELM ROBERT W officer (Corp.VP, Government Relations) 300 $66.42 $19,926.00 80,051 -5.12% view
* An * after P or S in the Buy/Sell column means the transaction was filed by the insider as open market, but it was marked as private transaction by insidercow's proprietary method
Show all 734 records.
Enter Another Stock Symbol: